Wetterdaten: Montag, 30.06.2014
Datum Zeit Temp. Aussen +5cm Feuchte Auss Luftdruck Regen Sonnenschein Regendauer UV Solar Windben
30.06.2014 00:00 13,0 C 12,2 C 95 % 1011,7 hPa 0,0 l/m 0 min 0 min 0,0 UV-I 0 W/m 10,5 km/h (2 Bft)
30.06.2014 00:02 13,0 C 12,2 C 95 % 1011,8 hPa 0,0 l/m 0 min 0 min 0,0 UV-I 0 W/m 8,4 km/h (2 Bft)
30.06.2014 00:05 12,9 C 12,2 C 95 % 1011,6 hPa 0,0 l/m 0 min 0 min 0,0 UV-I 0 W/m 8,4 km/h (2 Bft)
30.06.2014 00:06 12,9 C 12,2 C 95 % 1011,6 hPa 0,0 l/m 0 min 0 min 0,0 UV-I 0 W/m 8,4 km/h (2 Bft)
30.06.2014 00:08 12,9 C 11,7 C 95 % 1011,7 hPa 0,0 l/m 0 min 0 min 0,0 UV-I 0 W/m 10,5 km/h (2 Bft)
30.06.2014 00:10 12,9 C 11,7 C 95 % 1011,6 hPa 0,0 l/m 0 min 0 min 0,0 UV-I 0 W/m 8,4 km/h (2 Bft)
30.06.2014 00:12 12,8 C 11,7 C 95 % 1011,7 hPa 0,0 l/m 0 min 0 min 0,0 UV-I 0 W/m 6,3 km/h (2 Bft)
30.06.2014 00:14 12,8 C 11,7 C 95 % 1011,8 hPa 0,0 l/m 0 min 0 min 0,0 UV-I 0 W/m 8,4 km/h (2 Bft)
30.06.2014 00:16 12,8 C 11,7 C 95 % 1011,8 hPa 0,0 l/m 0 min 0 min 0,0 UV-I 0 W/m 12,6 km/h (3 Bft)
30.06.2014 00:18 12,8 C 11,7 C 95 % 1011,7 hPa 0,0 l/m 0 min 0 min 0,0 UV-I 0 W/m 8,4 km/h (2 Bft)
30.06.2014 00:20 12,7 C 11,7 C 95 % 1011,7 hPa 0,0 l/m 0 min 0 min 0,0 UV-I 0 W/m 10,5 km/h (2 Bft)
30.06.2014 00:22 12,7 C 11,7 C 95 % 1011,7 hPa 0,0 l/m 0 min 0 min 0,0 UV-I 0 W/m 8,4 km/h (2 Bft)
30.06.2014 00:24 12,7 C 11,7 C 95 % 1011,8 hPa 0,0 l/m 0 min 0 min 0,0 UV-I 0 W/m 8,4 km/h (2 Bft)
30.06.2014 00:26 12,7 C 11,7 C 95 % 1011,8 hPa 0,0 l/m 0 min 0 min 0,0 UV-I 0 W/m 6,3 km/h (2 Bft)
30.06.2014 00:28 12,7 C 11,7 C 95 % 1011,8 hPa 0,0 l/m 0 min 0 min 0,0 UV-I 0 W/m 8,4 km/h (2 Bft)
30.06.2014 00:30 12,6 C 11,7 C 95 % 1011,9 hPa 0,0 l/m 0 min 0 min 0,0 UV-I 0 W/m 6,3 km/h (2 Bft)
30.06.2014 00:32 12,6 C 11,7 C 95 % 1011,8 hPa 0,0 l/m 0 min 0 min 0,0 UV-I 0 W/m 8,4 km/h (2 Bft)
30.06.2014 00:34 12,6 C 11,7 C 95 % 1011,9 hPa 0,0 l/m 0 min 0 min 0,0 UV-I 0 W/m 6,3 km/h (2 Bft)
30.06.2014 00:36 12,5 C 11,7 C 95 % 1011,8 hPa 0,0 l/m 0 min 0 min 0,0 UV-I 0 W/m 0,0 km/h (0 Bft)
30.06.2014 00:38 12,5 C 11,7 C 95 % 1011,9 hPa 0,0 l/m 0 min 0 min 0,0 UV-I 0 W/m 8,4 km/h (2 Bft)
30.06.2014 00:40 12,5 C 11,7 C 95 % 1011,9 hPa 0,0 l/m 0 min 0 min 0,0 UV-I 0 W/m 8,4 km/h (2 Bft)
30.06.2014 00:42 12,4 C 11,7 C 95 % 1011,9 hPa 0,0 l/m 0 min 0 min 0,0 UV-I 0 W/m 2,1 km/h (1 Bft)
30.06.2014 00:44 12,4 C 11,1 C 95 % 1011,9 hPa 0,0 l/m 0 min 0 min 0,0 UV-I 0 W/m 10,5 km/h (2 Bft)
30.06.2014 00:46 12,4 C 11,1 C 95 % 1011,9 hPa 0,0 l/m 0 min 0 min 0,0 UV-I 0 W/m 8,4 km/h (2 Bft)
30.06.2014 00:48 12,4 C 11,7 C 96 % 1011,9 hPa 0,0 l/m 0 min 0 min 0,0 UV-I 0 W/m 6,3 km/h (2 Bft)
30.06.2014 00:50 12,4 C 11,7 C 96 % 1011,9 hPa 0,0 l/m 0 min 0 min 0,0 UV-I 0 W/m 8,4 km/h (2 Bft)
30.06.2014 00:52 12,4 C 11,7 C 96 % 1011,9 hPa 0,0 l/m 0 min 0 min 0,0 UV-I 0 W/m 8,4 km/h (2 Bft)
30.06.2014 00:54 12,4 C 11,7 C 96 % 1011,9 hPa 0,0 l/m 0 min 0 min 0,0 UV-I 0 W/m 6,3 km/h (2 Bft)
30.06.2014 00:56 12,4 C 11,7 C 96 % 1011,9 hPa 0,0 l/m 0 min 0 min 0,0 UV-I 0 W/m 8,4 km/h (2 Bft)
30.06.2014 00:58 12,4 C 11,7 C 96 % 1011,9 hPa 0,0 l/m 0 min 0 min 0,0 UV-I 0 W/m 8,4 km/h (2 Bft)
30.06.2014 01:00 12,4 C 11,7 C 96 % 1011,9 hPa 0,0 l/m 0 min 0 min 0,0 UV-I 0 W/m 10,5 km/h (2 Bft)
30.06.2014 01:02 12,4 C 11,7 C 96 % 1011,9 hPa 0,0 l/m 0 min 0 min 0,0 UV-I 0 W/m 8,4 km/h (2 Bft)
30.06.2014 01:04 12,4 C 11,7 C 96 % 1011,9 hPa 0,0 l/m 0 min 0 min 0,0 UV-I 0 W/m 8,4 km/h (2 Bft)
30.06.2014 01:06 12,4 C 11,7 C 96 % 1011,9 hPa 0,0 l/m 0 min 0 min 0,0 UV-I 0 W/m 12,6 km/h (3 Bft)
30.06.2014 01:08 12,4 C 11,7 C 96 % 1011,9 hPa 0,0 l/m 0 min 0 min 0,0 UV-I 0 W/m 8,4 km/h (2 Bft)
30.06.2014 01:10 12,4 C 11,7 C 96 % 1011,9 hPa 0,0 l/m 0 min 0 min 0,0 UV-I 0 W/m 10,5 km/h (2 Bft)
30.06.2014 01:12 12,4 C 11,7 C 96 % 1011,9 hPa 0,0 l/m 0 min 0 min 0,0 UV-I 0 W/m 10,5 km/h (2 Bft)
30.06.2014 01:14 12,4 C 11,7 C 96 % 1011,9 hPa 0,0 l/m 0 min 0 min 0,0 UV-I 0 W/m 10,5 km/h (2 Bft)
30.06.2014 01:16 12,4 C 11,7 C 96 % 1012,0 hPa 0,0 l/m 0 min 0 min 0,0 UV-I 0 W/m 10,5 km/h (2 Bft)
30.06.2014 01:18 12,4 C 11,7 C 96 % 1011,9 hPa 0,0 l/m 0 min 0 min 0,0 UV-I 0 W/m 8,4 km/h (2 Bft)
30.06.2014 01:20 12,4 C 11,7 C 96 % 1011,9 hPa 0,0 l/m 0 min 0 min 0,0 UV-I 0 W/m 8,4 km/h (2 Bft)
30.06.2014 01:22 12,4 C 11,7 C 96 % 1011,9 hPa 0,0 l/m 0 min 0 min 0,0 UV-I 0 W/m 8,4 km/h (2 Bft)
30.06.2014 01:24 12,4 C 11,7 C 96 % 1011,9 hPa 0,0 l/m 0 min 0 min 0,0 UV-I 0 W/m 10,5 km/h (2 Bft)
30.06.2014 01:26 12,4 C 11,7 C 96 % 1012,0 hPa 0,0 l/m 0 min 0 min 0,0 UV-I 0 W/m 8,4 km/h (2 Bft)
30.06.2014 01:28 12,3 C 11,7 C 96 % 1011,9 hPa 0,0 l/m 0 min 0 min 0,0 UV-I 0 W/m 10,5 km/h (2 Bft)
30.06.2014 01:30 12,3 C 11,7 C 96 % 1012,0 hPa 0,0 l/m 0 min 0 min 0,0 UV-I 0 W/m 10,5 km/h (2 Bft)
30.06.2014 01:32 12,3 C 11,7 C 96 % 1011,9 hPa 0,0 l/m 0 min 0 min 0,0 UV-I 0 W/m 10,5 km/h (2 Bft)
30.06.2014 01:34 12,3 C 11,7 C 96 % 1012,0 hPa 0,0 l/m 0 min 0 min 0,0 UV-I 0 W/m 8,4 km/h (2 Bft)
30.06.2014 01:36 12,3 C 11,7 C 96 % 1012,0 hPa 0,0 l/m 0 min 0 min 0,0 UV-I 0 W/m 6,3 km/h (2 Bft)
30.06.2014 01:38 12,3 C 11,7 C 96 % 1012,0 hPa 0,0 l/m 0 min 0 min 0,0 UV-I 0 W/m 10,5 km/h (2 Bft)
30.06.2014 01:40 12,4 C 11,7 C 96 % 1012,0 hPa 0,0 l/m 0 min 0 min 0,0 UV-I 0 W/m 10,5 km/h (2 Bft)
30.06.2014 01:42 12,4 C 11,7 C 96 % 1012,0 hPa 0,0 l/m 0 min 0 min 0,0 UV-I 0 W/m 8,4 km/h (2 Bft)
30.06.2014 01:44 12,4 C 11,7 C 96 % 1012,0 hPa 0,0 l/m 0 min 0 min 0,0 UV-I 0 W/m 6,3 km/h (2 Bft)
30.06.2014 01:46 12,4 C 11,7 C 96 % 1011,9 hPa 0,0 l/m 0 min 0 min 0,0 UV-I 0 W/m 2,1 km/h (1 Bft)
30.06.2014 01:48 12,4 C 11,7 C 96 % 1011,9 hPa 0,0 l/m 0 min 0 min 0,0 UV-I 0 W/m 6,3 km/h (2 Bft)
30.06.2014 01:50 12,4 C 11,7 C 96 % 1011,9 hPa 0,0 l/m 0 min 0 min 0,0 UV-I 0 W/m 8,4 km/h (2 Bft)
30.06.2014 01:52 12,4 C 11,7 C 96 % 1011,9 hPa 0,0 l/m 0 min 0 min 0,0 UV-I 0 W/m 8,4 km/h (2 Bft)
30.06.2014 01:54 12,4 C 11,7 C 96 % 1011,9 hPa 0,0 l/m 0 min 0 min 0,0 UV-I 0 W/m 6,3 km/h (2 Bft)
30.06.2014 01:56 12,4 C 11,7 C 96 % 1011,9 hPa 0,0 l/m 0 min 0 min 0,0 UV-I 0 W/m 8,4 km/h (2 Bft)
30.06.2014 01:58 12,4 C 11,7 C 96 % 1011,9 hPa 0,0 l/m 0 min 0 min 0,0 UV-I 0 W/m 8,4 km/h (2 Bft)
30.06.2014 02:00 12,4 C 11,7 C 96 % 1012,0 hPa 0,0 l/m 0 min 0 min 0,0 UV-I 0 W/m 8,4 km/h (2 Bft)
30.06.2014 02:02 12,5 C 11,7 C 96 % 1011,9 hPa 0,0 l/m 0 min 0 min 0,0 UV-I 0 W/m 6,3 km/h (2 Bft)
30.06.2014 02:04 12,5 C 11,7 C 96 % 1012,0 hPa 0,0 l/m 0 min 0 min 0,0 UV-I 0 W/m 8,4 km/h (2 Bft)
30.06.2014 02:06 12,5 C 11,7 C 96 % 1012,0 hPa 0,0 l/m 0 min 0 min 0,0 UV-I 0 W/m 6,3 km/h (2 Bft)
30.06.2014 02:08 12,6 C 11,7 C 96 % 1012,0 hPa 0,0 l/m 0 min 0 min 0,0 UV-I 0 W/m 6,3 km/h (2 Bft)
30.06.2014 02:10 12,6 C 11,7 C 96 % 1012,0 hPa 0,0 l/m 0 min 0 min 0,0 UV-I 0 W/m 8,4 km/h (2 Bft)
30.06.2014 02:12 12,6 C 11,7 C 96 % 1012,0 hPa 0,0 l/m 0 min 0 min 0,0 UV-I 0 W/m 8,4 km/h (2 Bft)
30.06.2014 02:14 12,5 C 11,7 C 96 % 1012,0 hPa 0,0 l/m 0 min 0 min 0,0 UV-I 0 W/m 6,3 km/h (2 Bft)
30.06.2014 02:16 12,5 C 11,7 C 96 % 1012,0 hPa 0,0 l/m 0 min 0 min 0,0 UV-I 0 W/m 0,0 km/h (0 Bft)
30.06.2014 02:18 12,5 C 11,7 C 96 % 1012,1 hPa 0,0 l/m 0 min 0 min 0,0 UV-I 0 W/m 0,0 km/h (0 Bft)
30.06.2014 02:20 12,4 C 11,7 C 96 % 1012,0 hPa 0,0 l/m 0 min 0 min 0,0 UV-I 0 W/m 0,0 km/h (0 Bft)
30.06.2014 02:22 12,4 C 11,7 C 96 % 1012,0 hPa 0,0 l/m 0 min 0 min 0,0 UV-I 0 W/m 0,0 km/h (0 Bft)
30.06.2014 02:24 12,4 C 11,7 C 96 % 1012,0 hPa 0,0 l/m 0 min 0 min 0,0 UV-I 0 W/m 8,4 km/h (2 Bft)
30.06.2014 02:26 12,4 C 11,7 C 96 % 1012,0 hPa 0,0 l/m 0 min 0 min 0,0 UV-I 0 W/m 6,3 km/h (2 Bft)
30.06.2014 02:28 12,3 C 11,1 C 96 % 1012,1 hPa 0,0 l/m 0 min 0 min 0,0 UV-I 0 W/m 0,0 km/h (0 Bft)
30.06.2014 02:30 12,3 C 11,1 C 96 % 1012,0 hPa 0,0 l/m 0 min 0 min 0,0 UV-I 0 W/m 8,4 km/h (2 Bft)
30.06.2014 02:32 12,3 C 11,7 C 96 % 1012,1 hPa 0,0 l/m 0 min 0 min 0,0 UV-I 0 W/m 8,4 km/h (2 Bft)
30.06.2014 02:34 12,3 C 11,7 C 96 % 1012,0 hPa 0,0 l/m 0 min 0 min 0,0 UV-I 0 W/m 6,3 km/h (2 Bft)
30.06.2014 02:36 12,3 C 11,7 C 96 % 1012,0 hPa 0,0 l/m 0 min 0 min 0,0 UV-I 0 W/m 8,4 km/h (2 Bft)
30.06.2014 02:38 12,3 C 11,7 C 96 % 1012,0 hPa 0,0 l/m 0 min 0 min 0,0 UV-I 0 W/m 8,4 km/h (2 Bft)
30.06.2014 02:40 12,3 C 11,7 C 96 % 1012,0 hPa 0,0 l/m 0 min 0 min 0,0 UV-I 0 W/m 6,3 km/h (2 Bft)
30.06.2014 02:42 12,3 C 11,7 C 96 % 1012,0 hPa 0,0 l/m 0 min 0 min 0,0 UV-I 0 W/m 10,5 km/h (2 Bft)
30.06.2014 02:44 12,3 C 11,1 C 96 % 1012,0 hPa 0,0 l/m 0 min 0 min 0,0 UV-I 0 W/m 10,5 km/h (2 Bft)
30.06.2014 02:46 12,3 C 11,1 C 96 % 1012,0 hPa 0,0 l/m 0 min 0 min 0,0 UV-I 0 W/m 10,5 km/h (2 Bft)
30.06.2014 02:48 12,2 C 11,1 C 96 % 1012,0 hPa 0,0 l/m 0 min 0 min 0,0 UV-I 0 W/m 8,4 km/h (2 Bft)
30.06.2014 02:50 12,2 C 11,1 C 96 % 1012,0 hPa 0,0 l/m 0 min 0 min 0,0 UV-I 0 W/m 12,6 km/h (3 Bft)
30.06.2014 02:52 12,2 C 11,1 C 96 % 1012,0 hPa 0,0 l/m 0 min 0 min 0,0 UV-I 0 W/m 10,5 km/h (2 Bft)
30.06.2014 02:54 12,2 C 11,1 C 96 % 1012,0 hPa 0,0 l/m 0 min 0 min 0,0 UV-I 0 W/m 10,5 km/h (2 Bft)
30.06.2014 02:56 12,2 C 11,1 C 96 % 1012,0 hPa 0,0 l/m 0 min 0 min 0,0 UV-I 0 W/m 10,5 km/h (2 Bft)
30.06.2014 02:58 12,2 C 11,1 C 96 % 1011,9 hPa 0,0 l/m 0 min 0 min 0,0 UV-I 0 W/m 8,4 km/h (2 Bft)
30.06.2014 03:00 12,1 C 11,1 C 96 % 1011,9 hPa 0,0 l/m 0 min 0 min 0,0 UV-I 0 W/m 10,5 km/h (2 Bft)
30.06.2014 03:02 12,2 C 11,1 C 96 % 1012,0 hPa 0,0 l/m 0 min 0 min 0,0 UV-I 0 W/m 10,5 km/h (2 Bft)
30.06.2014 03:04 12,1 C 11,1 C 96 % 1012,0 hPa 0,0 l/m 0 min 0 min 0,0 UV-I 0 W/m 8,4 km/h (2 Bft)
30.06.2014 03:06 12,1 C 11,1 C 96 % 1012,0 hPa 0,0 l/m 0 min 0 min 0,0 UV-I 0 W/m 8,4 km/h (2 Bft)
30.06.2014 03:08 12,1 C 11,1 C 96 % 1012,1 hPa 0,0 l/m 0 min 0 min 0,0 UV-I 0 W/m 8,4 km/h (2 Bft)
30.06.2014 03:10 12,1 C 11,1 C 96 % 1012,0 hPa 0,0 l/m 0 min 0 min 0,0 UV-I 0 W/m 8,4 km/h (2 Bft)
30.06.2014 03:12 12,1 C 11,1 C 96 % 1012,0 hPa 0,0 l/m 0 min 0 min 0,0 UV-I 0 W/m 8,4 km/h (2 Bft)
30.06.2014 03:14 12,0 C 11,1 C 96 % 1012,1 hPa 0,0 l/m 0 min 0 min 0,0 UV-I 0 W/m 10,5 km/h (2 Bft)
30.06.2014 03:16 12,0 C 11,1 C 96 % 1012,1 hPa 0,0 l/m 0 min 0 min 0,0 UV-I 0 W/m 6,3 km/h (2 Bft)
30.06.2014 03:18 12,0 C 11,1 C 96 % 1012,1 hPa 0,0 l/m 0 min 0 min 0,0 UV-I 0 W/m 8,4 km/h (2 Bft)
30.06.2014 03:20 12,0 C 11,1 C 96 % 1012,1 hPa 0,0 l/m 0 min 0 min 0,0 UV-I 0 W/m 8,4 km/h (2 Bft)
30.06.2014 03:22 12,0 C 11,1 C 96 % 1012,1 hPa 0,0 l/m 0 min 0 min 0,0 UV-I 0 W/m 8,4 km/h (2 Bft)
30.06.2014 03:24 12,0 C 11,1 C 96 % 1012,1 hPa 0,0 l/m 0 min 0 min 0,0 UV-I 0 W/m 8,4 km/h (2 Bft)
30.06.2014 03:26 12,1 C 11,1 C 96 % 1012,1 hPa 0,0 l/m 0 min 0 min 0,0 UV-I 0 W/m 10,5 km/h (2 Bft)
30.06.2014 03:28 12,1 C 11,1 C 96 % 1012,1 hPa 0,0 l/m 0 min 0 min 0,0 UV-I 0 W/m 12,6 km/h (3 Bft)
30.06.2014 03:30 12,1 C 11,7 C 96 % 1012,1 hPa 0,0 l/m 0 min 0 min 0,0 UV-I 0 W/m 14,6 km/h (3 Bft)
30.06.2014 03:32 12,2 C 11,7 C 96 % 1012,2 hPa 0,0 l/m 0 min 0 min 0,0 UV-I 0 W/m 12,6 km/h (3 Bft)
30.06.2014 03:34 12,2 C 11,1 C 96 % 1012,2 hPa 0,0 l/m 0 min 0 min 0,0 UV-I 0 W/m 8,4 km/h (2 Bft)
30.06.2014 03:36 12,2 C 11,1 C 96 % 1012,2 hPa 0,0 l/m 0 min 0 min 0,0 UV-I 0 W/m 10,5 km/h (2 Bft)
30.06.2014 03:38 12,2 C 11,1 C 96 % 1012,3 hPa 0,0 l/m 0 min 0 min 0,0 UV-I 0 W/m 14,6 km/h (3 Bft)
30.06.2014 03:40 12,2 C 11,1 C 96 % 1012,3 hPa 0,0 l/m 0 min 0 min 0,0 UV-I 0 W/m 8,4 km/h (2 Bft)
30.06.2014 03:42 12,2 C 11,1 C 96 % 1012,2 hPa 0,0 l/m 0 min 0 min 0,0 UV-I 0 W/m 10,5 km/h (2 Bft)
30.06.2014 03:44 12,1 C 11,1 C 96 % 1012,2 hPa 0,0 l/m 0 min 0 min 0,0 UV-I 0 W/m 8,4 km/h (2 Bft)
30.06.2014 03:46 12,1 C 11,1 C 96 % 1012,2 hPa 0,0 l/m 0 min 0 min 0,0 UV-I 0 W/m 8,4 km/h (2 Bft)
30.06.2014 03:48 12,1 C 11,1 C 96 % 1012,2 hPa 0,0 l/m 0 min 0 min 0,0 UV-I 0 W/m 6,3 km/h (2 Bft)
30.06.2014 03:50 12,0 C 11,1 C 96 % 1012,2 hPa 0,0 l/m 0 min 0 min 0,0 UV-I 0 W/m 10,5 km/h (2 Bft)
30.06.2014 03:52 12,0 C 11,1 C 96 % 1012,2 hPa 0,0 l/m 0 min 0 min 0,0 UV-I 0 W/m 6,3 km/h (2 Bft)
30.06.2014 03:54 12,0 C 11,1 C 96 % 1012,2 hPa 0,0 l/m 0 min 0 min 0,0 UV-I 0 W/m 6,3 km/h (2 Bft)
30.06.2014 03:56 11,9 C 11,1 C 96 % 1012,2 hPa 0,0 l/m 0 min 0 min 0,0 UV-I 0 W/m 12,6 km/h (3 Bft)
30.06.2014 03:58 11,9 C 11,1 C 96 % 1012,2 hPa 0,0 l/m 0 min 0 min 0,0 UV-I 0 W/m 8,4 km/h (2 Bft)
30.06.2014 04:00 11,9 C 11,1 C 96 % 1012,2 hPa 0,0 l/m 0 min 0 min 0,0 UV-I 0 W/m 8,4 km/h (2 Bft)
30.06.2014 04:02 11,9 C 11,1 C 96 % 1012,2 hPa 0,0 l/m 0 min 0 min 0,0 UV-I 0 W/m 8,4 km/h (2 Bft)
30.06.2014 04:04 11,9 C 11,1 C 96 % 1012,2 hPa 0,0 l/m 0 min 0 min 0,0 UV-I 0 W/m 10,5 km/h (2 Bft)
30.06.2014 04:06 11,9 C 11,1 C 96 % 1012,2 hPa 0,0 l/m 0 min 0 min 0,0 UV-I 0 W/m 10,5 km/h (2 Bft)
30.06.2014 04:08 11,9 C 11,1 C 96 % 1012,2 hPa 0,0 l/m 0 min 0 min 0,0 UV-I 0 W/m 8,4 km/h (2 Bft)
30.06.2014 04:10 11,9 C 11,1 C 96 % 1012,3 hPa 0,0 l/m 0 min 0 min 0,0 UV-I 0 W/m 8,4 km/h (2 Bft)
30.06.2014 04:12 11,9 C 11,1 C 97 % 1012,3 hPa 0,0 l/m 0 min 0 min 0,0 UV-I 0 W/m 8,4 km/h (2 Bft)
30.06.2014 04:14 11,9 C 11,1 C 97 % 1012,2 hPa 0,0 l/m 0 min 0 min 0,0 UV-I 0 W/m 10,5 km/h (2 Bft)
30.06.2014 04:16 11,9 C 11,1 C 97 % 1012,2 hPa 0,0 l/m 0 min 0 min 0,0 UV-I 0 W/m 8,4 km/h (2 Bft)
30.06.2014 04:18 11,8 C 10,6 C 97 % 1012,3 hPa 0,0 l/m 0 min 0 min 0,0 UV-I 0 W/m 8,4 km/h (2 Bft)
30.06.2014 04:20 11,8 C 10,6 C 97 % 1012,3 hPa 0,0 l/m 0 min 0 min 0,0 UV-I 0 W/m 10,5 km/h (2 Bft)
30.06.2014 04:22 11,8 C 11,1 C 97 % 1012,2 hPa 0,0 l/m 0 min 0 min 0,0 UV-I 0 W/m 6,3 km/h (2 Bft)
30.06.2014 04:24 11,8 C 11,1 C 97 % 1012,4 hPa 0,0 l/m 0 min 0 min 0,0 UV-I 0 W/m 6,3 km/h (2 Bft)
30.06.2014 04:26 11,8 C 10,6 C 97 % 1012,4 hPa 0,0 l/m 0 min 0 min 0,0 UV-I 0 W/m 8,4 km/h (2 Bft)
30.06.2014 04:28 11,7 C 10,6 C 97 % 1012,4 hPa 0,0 l/m 0 min 0 min 0,0 UV-I 0 W/m 0,0 km/h (0 Bft)
30.06.2014 04:30 11,7 C 10,6 C 96 % 1012,5 hPa 0,0 l/m 0 min 0 min 0,0 UV-I 0 W/m 8,4 km/h (2 Bft)
30.06.2014 04:32 11,7 C 10,6 C 96 % 1012,6 hPa 0,0 l/m 0 min 0 min 0,0 UV-I 0 W/m 10,5 km/h (2 Bft)
30.06.2014 04:34 11,7 C 10,6 C 96 % 1012,5 hPa 0,0 l/m 0 min 0 min 0,0 UV-I 0 W/m 0,0 km/h (0 Bft)
30.06.2014 04:36 11,7 C 10,6 C 96 % 1012,5 hPa 0,0 l/m 0 min 0 min 0,0 UV-I 0 W/m 6,3 km/h (2 Bft)
30.06.2014 04:38 11,6 C 10,6 C 96 % 1012,5 hPa 0,0 l/m 0 min 0 min 0,0 UV-I 0 W/m 0,0 km/h (0 Bft)
30.06.2014 04:40 11,6 C 10,6 C 97 % 1012,5 hPa 0,0 l/m 0 min 0 min 0,0 UV-I 0 W/m 0,0 km/h (0 Bft)
30.06.2014 04:42 11,6 C 10,6 C 97 % 1012,5 hPa 0,0 l/m 0 min 0 min 0,0 UV-I 0 W/m 4,2 km/h (1 Bft)
30.06.2014 04:44 11,5 C 10,6 C 97 % 1012,5 hPa 0,0 l/m 0 min 0 min 0,0 UV-I 0 W/m 0,0 km/h (0 Bft)
30.06.2014 04:46 11,5 C 10,6 C 97 % 1012,6 hPa 0,0 l/m 0 min 0 min 0,0 UV-I 0 W/m 0,0 km/h (0 Bft)
30.06.2014 04:48 11,5 C 10,6 C 97 % 1012,6 hPa 0,0 l/m 0 min 0 min 0,0 UV-I 0 W/m 8,4 km/h (2 Bft)
30.06.2014 04:50 11,5 C 10,6 C 97 % 1012,6 hPa 0,0 l/m 0 min 0 min 0,0 UV-I 0 W/m 4,2 km/h (1 Bft)
30.06.2014 04:52 11,5 C 10,6 C 97 % 1012,6 hPa 0,0 l/m 0 min 0 min 0,0 UV-I 0 W/m 6,3 km/h (2 Bft)
30.06.2014 04:54 11,6 C 10,6 C 97 % 1012,6 hPa 0,0 l/m 0 min 0 min 0,0 UV-I 0 W/m 8,4 km/h (2 Bft)
30.06.2014 04:56 11,6 C 10,6 C 97 % 1012,6 hPa 0,0 l/m 0 min 0 min 0,0 UV-I 0 W/m 10,5 km/h (2 Bft)
30.06.2014 04:58 11,6 C 11,1 C 97 % 1012,6 hPa 0,0 l/m 0 min 0 min 0,0 UV-I 0 W/m 6,3 km/h (2 Bft)
30.06.2014 05:00 11,7 C 11,1 C 97 % 1012,6 hPa 0,0 l/m 0 min 0 min 0,0 UV-I 0 W/m 8,4 km/h (2 Bft)
30.06.2014 05:02 11,7 C 11,1 C 97 % 1012,7 hPa 0,0 l/m 0 min 0 min 0,0 UV-I 0 W/m 0,0 km/h (0 Bft)
30.06.2014 05:04 11,7 C 11,1 C 97 % 1012,6 hPa 0,0 l/m 0 min 0 min 0,0 UV-I 0 W/m 8,4 km/h (2 Bft)
30.06.2014 05:06 11,7 C 11,1 C 97 % 1012,7 hPa 0,0 l/m 0 min 0 min 0,0 UV-I 0 W/m 6,3 km/h (2 Bft)
30.06.2014 05:08 11,7 C 11,1 C 97 % 1012,6 hPa 0,0 l/m 0 min 0 min 0,0 UV-I 0 W/m 0,0 km/h (0 Bft)
30.06.2014 05:10 11,7 C 11,1 C 97 % 1012,7 hPa 0,0 l/m 0 min 0 min 0,0 UV-I 0 W/m 4,2 km/h (1 Bft)
30.06.2014 05:12 11,8 C 11,1 C 97 % 1012,7 hPa 0,0 l/m 0 min 0 min 0,0 UV-I 0 W/m 0,0 km/h (0 Bft)
30.06.2014 05:14 11,8 C 11,1 C 97 % 1012,6 hPa 0,0 l/m 0 min 0 min 0,0 UV-I 0 W/m 6,3 km/h (2 Bft)
30.06.2014 05:16 11,8 C 11,1 C 97 % 1012,6 hPa 0,0 l/m 0 min 0 min 0,0 UV-I 0 W/m 6,3 km/h (2 Bft)
30.06.2014 05:18 11,8 C 11,1 C 97 % 1012,7 hPa 0,0 l/m 0 min 0 min 0,0 UV-I 0 W/m 8,4 km/h (2 Bft)
30.06.2014 05:20 11,8 C 11,1 C 97 % 1012,8 hPa 0,0 l/m 0 min 0 min 0,0 UV-I 0 W/m 0,0 km/h (0 Bft)
30.06.2014 05:22 11,8 C 11,1 C 97 % 1012,8 hPa 0,0 l/m 0 min 0 min 0,0 UV-I 5 W/m 14,6 km/h (3 Bft)
30.06.2014 05:24 11,8 C 11,1 C 97 % 1012,8 hPa 0,0 l/m 0 min 0 min 0,0 UV-I 5 W/m 0,0 km/h (0 Bft)
30.06.2014 05:26 11,8 C 11,1 C 97 % 1012,8 hPa 0,0 l/m 0 min 0 min 0,0 UV-I 5 W/m 8,4 km/h (2 Bft)
30.06.2014 05:28 11,8 C 11,1 C 97 % 1012,7 hPa 0,0 l/m 0 min 0 min 0,0 UV-I 5 W/m 12,6 km/h (3 Bft)
30.06.2014 05:30 11,8 C 11,1 C 97 % 1012,7 hPa 0,0 l/m 0 min 0 min 0,0 UV-I 5 W/m 0,0 km/h (0 Bft)
30.06.2014 05:32 11,8 C 10,6 C 97 % 1012,8 hPa 0,0 l/m 0 min 0 min 0,0 UV-I 7 W/m 6,3 km/h (2 Bft)
30.06.2014 05:34 11,7 C 10,6 C 97 % 1012,7 hPa 0,0 l/m 0 min 0 min 0,0 UV-I 7 W/m 4,2 km/h (1 Bft)
30.06.2014 05:36 11,7 C 10,6 C 97 % 1012,8 hPa 0,0 l/m 2 min 0 min 0,0 UV-I 9 W/m 10,5 km/h (2 Bft)
30.06.2014 05:38 11,7 C 10,6 C 97 % 1012,8 hPa 0,0 l/m 0 min 0 min 0,0 UV-I 9 W/m 6,3 km/h (2 Bft)
30.06.2014 05:40 11,7 C 10,6 C 97 % 1012,8 hPa 0,0 l/m 0 min 0 min 0,0 UV-I 11 W/m 4,2 km/h (1 Bft)
30.06.2014 05:42 11,7 C 10,6 C 97 % 1012,8 hPa 0,0 l/m 0 min 0 min 0,0 UV-I 12 W/m 4,2 km/h (1 Bft)
30.06.2014 05:44 11,7 C 10,6 C 97 % 1012,8 hPa 0,0 l/m 0 min 0 min 0,0 UV-I 12 W/m 10,5 km/h (2 Bft)
30.06.2014 05:46 11,7 C 10,6 C 97 % 1012,9 hPa 0,0 l/m 0 min 0 min 0,0 UV-I 14 W/m 0,0 km/h (0 Bft)
30.06.2014 05:48 11,7 C 10,6 C 97 % 1012,9 hPa 0,0 l/m 0 min 0 min 0,0 UV-I 18 W/m 6,3 km/h (2 Bft)
30.06.2014 05:50 11,7 C 10,6 C 97 % 1012,9 hPa 0,0 l/m 0 min 0 min 0,0 UV-I 18 W/m 8,4 km/h (2 Bft)
30.06.2014 05:52 11,8 C 11,1 C 97 % 1013,0 hPa 0,0 l/m 0 min 0 min 0,0 UV-I 18 W/m 6,3 km/h (2 Bft)
30.06.2014 05:54 11,8 C 11,1 C 97 % 1013,0 hPa 0,0 l/m 0 min 0 min 0,0 UV-I 19 W/m 6,3 km/h (2 Bft)
30.06.2014 05:56 11,8 C 11,1 C 97 % 1013,1 hPa 0,0 l/m 0 min 0 min 0,0 UV-I 21 W/m 2,1 km/h (1 Bft)
30.06.2014 05:58 11,9 C 11,1 C 97 % 1013,1 hPa 0,0 l/m 0 min 0 min 0,0 UV-I 23 W/m 8,4 km/h (2 Bft)
30.06.2014 06:00 11,9 C 11,1 C 97 % 1013,1 hPa 0,0 l/m 0 min 0 min 0,0 UV-I 28 W/m 12,6 km/h (3 Bft)
30.06.2014 06:02 11,9 C 11,1 C 97 % 1013,1 hPa 0,0 l/m 0 min 0 min 0,0 UV-I 30 W/m 10,5 km/h (2 Bft)
30.06.2014 06:06 12,0 C 11,1 C 97 % 1013,2 hPa 0,0 l/m 0 min 0 min 0,0 UV-I 37 W/m 8,4 km/h (2 Bft)
30.06.2014 06:08 12,1 C 11,1 C 97 % 1013,1 hPa 0,0 l/m 0 min 0 min 0,0 UV-I 44 W/m 10,5 km/h (2 Bft)
30.06.2014 06:10 12,1 C 11,7 C 97 % 1013,1 hPa 0,0 l/m 0 min 0 min 0,0 UV-I 37 W/m 14,6 km/h (3 Bft)
30.06.2014 06:12 12,1 C 11,7 C 97 % 1013,2 hPa 0,0 l/m 0 min 0 min 0,0 UV-I 26 W/m 10,5 km/h (2 Bft)
30.06.2014 06:14 12,1 C 11,7 C 97 % 1013,2 hPa 0,0 l/m 0 min 0 min 0,0 UV-I 25 W/m 12,6 km/h (3 Bft)
30.06.2014 06:16 12,2 C 11,7 C 97 % 1013,2 hPa 0,0 l/m 0 min 0 min 0,0 UV-I 21 W/m 12,6 km/h (3 Bft)
30.06.2014 06:18 12,2 C 11,7 C 97 % 1013,2 hPa 0,0 l/m 0 min 0 min 0,0 UV-I 21 W/m 16,7 km/h (3 Bft)
30.06.2014 06:20 12,2 C 11,7 C 97 % 1013,2 hPa 0,0 l/m 0 min 0 min 0,0 UV-I 21 W/m 12,6 km/h (3 Bft)
30.06.2014 06:22 12,2 C 11,7 C 97 % 1013,2 hPa 0,0 l/m 0 min 0 min 0,0 UV-I 23 W/m 6,3 km/h (2 Bft)
30.06.2014 06:24 12,3 C 11,7 C 97 % 1013,3 hPa 0,0 l/m 0 min 0 min 0,0 UV-I 25 W/m 12,6 km/h (3 Bft)
30.06.2014 06:26 12,3 C 11,7 C 97 % 1013,3 hPa 0,0 l/m 0 min 0 min 0,0 UV-I 25 W/m 6,3 km/h (2 Bft)
30.06.2014 06:28 12,3 C 11,7 C 97 % 1013,3 hPa 0,0 l/m 0 min 0 min 0,0 UV-I 25 W/m 8,4 km/h (2 Bft)
30.06.2014 06:30 12,3 C 11,7 C 97 % 1013,3 hPa 0,0 l/m 0 min 0 min 0,0 UV-I 25 W/m 14,6 km/h (3 Bft)
30.06.2014 06:32 12,3 C 11,7 C 97 % 1013,3 hPa 0,0 l/m 0 min 0 min 0,0 UV-I 26 W/m 18,8 km/h (3 Bft)
30.06.2014 06:34 12,4 C 11,7 C 97 % 1013,3 hPa 0,0 l/m 0 min 0 min 0,0 UV-I 28 W/m 14,6 km/h (3 Bft)
30.06.2014 06:36 12,4 C 11,7 C 97 % 1013,4 hPa 0,0 l/m 0 min 0 min 0,0 UV-I 28 W/m 12,6 km/h (3 Bft)
30.06.2014 06:38 12,4 C 11,7 C 97 % 1013,4 hPa 0,0 l/m 0 min 0 min 0,0 UV-I 28 W/m 12,6 km/h (3 Bft)
30.06.2014 06:40 12,4 C 11,7 C 97 % 1013,4 hPa 0,0 l/m 0 min 0 min 0,0 UV-I 33 W/m 10,5 km/h (2 Bft)
30.06.2014 06:42 12,4 C 11,7 C 97 % 1013,4 hPa 0,0 l/m 0 min 0 min 0,0 UV-I 35 W/m 12,6 km/h (3 Bft)
30.06.2014 06:44 12,5 C 11,7 C 97 % 1013,4 hPa 0,0 l/m 0 min 0 min 0,0 UV-I 37 W/m 10,5 km/h (2 Bft)
30.06.2014 06:46 12,5 C 11,7 C 97 % 1013,3 hPa 0,0 l/m 0 min 0 min 0,0 UV-I 40 W/m 8,4 km/h (2 Bft)
30.06.2014 06:48 12,5 C 12,2 C 97 % 1013,3 hPa 0,0 l/m 0 min 0 min 0,0 UV-I 42 W/m 0,0 km/h (0 Bft)
30.06.2014 06:50 12,5 C 12,2 C 97 % 1013,4 hPa 0,0 l/m 0 min 0 min 0,0 UV-I 46 W/m 8,4 km/h (2 Bft)
30.06.2014 06:52 12,6 C 12,2 C 97 % 1013,3 hPa 0,0 l/m 0 min 0 min 0,0 UV-I 53 W/m 8,4 km/h (2 Bft)
30.06.2014 06:54 12,5 C 12,2 C 97 % 1013,3 hPa 0,0 l/m 0 min 0 min 0,0 UV-I 54 W/m 12,6 km/h (3 Bft)
30.06.2014 06:56 12,6 C 12,2 C 97 % 1013,4 hPa 0,0 l/m 0 min 0 min 0,0 UV-I 58 W/m 8,4 km/h (2 Bft)
30.06.2014 06:58 12,6 C 12,2 C 97 % 1013,4 hPa 0,0 l/m 0 min 0 min 0,0 UV-I 67 W/m 10,5 km/h (2 Bft)
30.06.2014 07:00 12,6 C 12,2 C 97 % 1013,4 hPa 0,0 l/m 0 min 0 min 0,0 UV-I 74 W/m 8,4 km/h (2 Bft)
30.06.2014 07:02 12,6 C 12,2 C 97 % 1013,4 hPa 0,0 l/m 0 min 0 min 0,0 UV-I 77 W/m 12,6 km/h (3 Bft)
30.06.2014 07:04 12,7 C 12,2 C 97 % 1013,4 hPa 0,0 l/m 0 min 0 min 0,0 UV-I 90 W/m 2,1 km/h (1 Bft)
30.06.2014 07:06 12,7 C 12,2 C 97 % 1013,4 hPa 0,0 l/m 0 min 0 min 0,0 UV-I 104 W/m 10,5 km/h (2 Bft)
30.06.2014 07:08 12,8 C 12,2 C 97 % 1013,4 hPa 0,0 l/m 0 min 0 min 0,0 UV-I 114 W/m 8,4 km/h (2 Bft)
30.06.2014 07:10 12,8 C 12,2 C 97 % 1013,4 hPa 0,0 l/m 0 min 0 min 0,0 UV-I 127 W/m 4,2 km/h (1 Bft)
30.06.2014 07:12 12,9 C 12,8 C 97 % 1013,4 hPa 0,0 l/m 2 min 0 min 0,0 UV-I 141 W/m 12,6 km/h (3 Bft)
30.06.2014 07:14 13,0 C 12,8 C 97 % 1013,4 hPa 0,0 l/m 2 min 0 min 0,0 UV-I 151 W/m 14,6 km/h (3 Bft)
30.06.2014 07:16 13,1 C 12,8 C 97 % 1013,4 hPa 0,0 l/m 2 min 0 min 0,0 UV-I 162 W/m 18,8 km/h (3 Bft)
30.06.2014 07:18 13,1 C 12,8 C 97 % 1013,5 hPa 0,0 l/m 2 min 0 min 0,0 UV-I 144 W/m 10,5 km/h (2 Bft)
30.06.2014 07:20 13,2 C 12,8 C 97 % 1013,5 hPa 0,0 l/m 2 min 0 min 0,0 UV-I 167 W/m 16,7 km/h (3 Bft)
30.06.2014 07:22 13,2 C 12,8 C 97 % 1013,4 hPa 0,0 l/m 2 min 0 min 0,0 UV-I 214 W/m 16,7 km/h (3 Bft)
30.06.2014 07:24 13,3 C 12,8 C 97 % 1013,4 hPa 0,0 l/m 2 min 0 min 0,0 UV-I 221 W/m 10,5 km/h (2 Bft)
30.06.2014 07:26 13,4 C 13,3 C 97 % 1013,4 hPa 0,0 l/m 2 min 0 min 0,0 UV-I 163 W/m 16,7 km/h (3 Bft)
30.06.2014 07:28 13,4 C 13,3 C 97 % 1013,4 hPa 0,0 l/m 2 min 0 min 0,0 UV-I 329 W/m 14,6 km/h (3 Bft)
30.06.2014 07:30 13,6 C 13,3 C 96 % 1013,4 hPa 0,0 l/m 2 min 0 min 0,0 UV-I 214 W/m 14,6 km/h (3 Bft)
30.06.2014 07:32 13,6 C 13,3 C 96 % 1013,5 hPa 0,0 l/m 2 min 0 min 0,0 UV-I 220 W/m 18,8 km/h (3 Bft)
30.06.2014 07:34 13,7 C 13,3 C 96 % 1013,5 hPa 0,0 l/m 0 min 0 min 0,0 UV-I 149 W/m 12,6 km/h (3 Bft)
30.06.2014 07:36 13,7 C 13,3 C 96 % 1013,5 hPa 0,0 l/m 0 min 0 min 0,0 UV-I 125 W/m 12,6 km/h (3 Bft)
30.06.2014 07:38 13,7 C 13,3 C 95 % 1013,6 hPa 0,0 l/m 0 min 0 min 0,0 UV-I 109 W/m 14,6 km/h (3 Bft)
30.06.2014 07:40 13,7 C 12,8 C 95 % 1013,5 hPa 0,0 l/m 0 min 0 min 0,0 UV-I 104 W/m 12,6 km/h (3 Bft)
30.06.2014 07:42 13,6 C 12,8 C 95 % 1013,6 hPa 0,0 l/m 0 min 0 min 0,0 UV-I 102 W/m 16,7 km/h (3 Bft)
30.06.2014 07:44 13,5 C 12,8 C 95 % 1013,7 hPa 0,0 l/m 0 min 0 min 0,0 UV-I 69 W/m 16,7 km/h (3 Bft)
30.06.2014 07:46 13,5 C 12,8 C 95 % 1013,8 hPa 0,0 l/m 0 min 0 min 0,0 UV-I 70 W/m 12,6 km/h (3 Bft)
30.06.2014 07:48 13,5 C 12,8 C 95 % 1013,8 hPa 0,0 l/m 0 min 0 min 0,0 UV-I 90 W/m 16,7 km/h (3 Bft)
30.06.2014 07:50 13,5 C 12,8 C 95 % 1013,7 hPa 0,0 l/m 0 min 0 min 0,0 UV-I 109 W/m 12,6 km/h (3 Bft)
30.06.2014 07:52 13,5 C 12,8 C 95 % 1013,7 hPa 0,0 l/m 0 min 0 min 0,0 UV-I 102 W/m 16,7 km/h (3 Bft)
30.06.2014 07:54 13,5 C 12,8 C 95 % 1013,7 hPa 0,0 l/m 0 min 0 min 0,0 UV-I 162 W/m 12,6 km/h (3 Bft)
30.06.2014 07:56 13,5 C 12,8 C 95 % 1013,8 hPa 0,0 l/m 2 min 0 min 0,0 UV-I 244 W/m 12,6 km/h (3 Bft)
30.06.2014 07:58 13,6 C 13,3 C 95 % 1013,9 hPa 0,0 l/m 2 min 0 min 0,0 UV-I 197 W/m 12,6 km/h (3 Bft)
30.06.2014 08:00 13,7 C 13,3 C 95 % 1013,9 hPa 0,0 l/m 2 min 0 min 0,0 UV-I 211 W/m 16,7 km/h (3 Bft)
30.06.2014 08:02 13,7 C 13,3 C 95 % 1013,9 hPa 0,0 l/m 2 min 0 min 0,0 UV-I 202 W/m 12,6 km/h (3 Bft)
30.06.2014 08:04 13,9 C 13,3 C 95 % 1013,9 hPa 0,0 l/m 0 min 0 min 0,0 UV-I 127 W/m 8,4 km/h (2 Bft)
30.06.2014 08:06 13,9 C 13,3 C 94 % 1013,9 hPa 0,0 l/m 0 min 0 min 0,0 UV-I 120 W/m 18,8 km/h (3 Bft)
30.06.2014 08:08 13,9 C 13,3 C 94 % 1013,9 hPa 0,0 l/m 0 min 0 min 0,0 UV-I 144 W/m 18,8 km/h (3 Bft)
30.06.2014 08:10 13,8 C 13,3 C 94 % 1014,0 hPa 0,0 l/m 0 min 0 min 0,0 UV-I 128 W/m 23,0 km/h (4 Bft)
30.06.2014 08:12 13,8 C 13,3 C 93 % 1014,0 hPa 0,0 l/m 0 min 0 min 0,0 UV-I 130 W/m 16,7 km/h (3 Bft)
30.06.2014 08:14 13,8 C 13,3 C 93 % 1014,0 hPa 0,0 l/m 0 min 0 min 0,0 UV-I 118 W/m 14,6 km/h (3 Bft)
30.06.2014 08:16 13,8 C 13,3 C 93 % 1014,0 hPa 0,0 l/m 0 min 0 min 0,0 UV-I 146 W/m 20,9 km/h (4 Bft)
30.06.2014 08:18 13,9 C 13,3 C 93 % 1014,0 hPa 0,0 l/m 0 min 0 min 0,0 UV-I 111 W/m 10,5 km/h (2 Bft)
30.06.2014 08:20 13,9 C 13,3 C 93 % 1014,1 hPa 0,0 l/m 0 min 0 min 0,0 UV-I 179 W/m 10,5 km/h (2 Bft)
30.06.2014 08:22 13,9 C 13,3 C 93 % 1014,1 hPa 0,0 l/m 0 min 0 min 0,0 UV-I 141 W/m 8,4 km/h (2 Bft)
30.06.2014 08:24 14,0 C 13,3 C 93 % 1014,1 hPa 0,0 l/m 0 min 0 min 0,0 UV-I 142 W/m 20,9 km/h (4 Bft)
30.06.2014 08:26 13,9 C 13,3 C 93 % 1014,2 hPa 0,0 l/m 0 min 0 min 0,0 UV-I 144 W/m 16,7 km/h (3 Bft)
30.06.2014 08:28 13,9 C 13,3 C 92 % 1014,2 hPa 0,0 l/m 0 min 0 min 0,0 UV-I 134 W/m 16,7 km/h (3 Bft)
30.06.2014 08:30 14,0 C 13,3 C 92 % 1014,1 hPa 0,0 l/m 0 min 0 min 0,0 UV-I 127 W/m 16,7 km/h (3 Bft)
30.06.2014 08:32 13,9 C 13,3 C 92 % 1014,1 hPa 0,0 l/m 0 min 0 min 0,0 UV-I 111 W/m 20,9 km/h (4 Bft)
30.06.2014 08:34 13,9 C 13,3 C 92 % 1014,1 hPa 0,0 l/m 0 min 0 min 0,0 UV-I 113 W/m 20,9 km/h (4 Bft)
30.06.2014 08:36 13,9 C 13,3 C 91 % 1014,2 hPa 0,0 l/m 0 min 0 min 0,0 UV-I 149 W/m 12,6 km/h (3 Bft)
30.06.2014 08:38 13,9 C 13,9 C 91 % 1014,2 hPa 0,0 l/m 0 min 0 min 0,0 UV-I 160 W/m 12,6 km/h (3 Bft)
30.06.2014 08:40 14,1 C 13,9 C 92 % 1014,2 hPa 0,0 l/m 0 min 0 min 0,0 UV-I 178 W/m 29,3 km/h (5 Bft)
30.06.2014 08:42 14,0 C 13,9 C 91 % 1014,3 hPa 0,0 l/m 0 min 0 min 0,0 UV-I 232 W/m 25,1 km/h (4 Bft)
30.06.2014 08:44 14,1 C 13,9 C 91 % 1014,3 hPa 0,0 l/m 0 min 0 min 0,0 UV-I 192 W/m 18,8 km/h (3 Bft)
30.06.2014 08:46 14,2 C 13,9 C 91 % 1014,3 hPa 0,0 l/m 0 min 0 min 0,0 UV-I 216 W/m 4,2 km/h (1 Bft)
30.06.2014 08:48 14,3 C 13,9 C 91 % 1014,3 hPa 0,0 l/m 0 min 0 min 0,0 UV-I 186 W/m 10,5 km/h (2 Bft)
30.06.2014 08:50 14,3 C 13,9 C 91 % 1014,4 hPa 0,0 l/m 0 min 0 min 0,0 UV-I 260 W/m 20,9 km/h (4 Bft)
30.06.2014 08:52 14,3 C 13,9 C 90 % 1014,4 hPa 0,0 l/m 0 min 0 min 0,0 UV-I 216 W/m 14,6 km/h (3 Bft)
30.06.2014 08:54 14,4 C 13,9 C 90 % 1014,4 hPa 0,0 l/m 0 min 0 min 0,0 UV-I 174 W/m 18,8 km/h (3 Bft)
30.06.2014 08:56 14,4 C 13,9 C 89 % 1014,5 hPa 0,0 l/m 0 min 0 min 0,0 UV-I 118 W/m 20,9 km/h (4 Bft)
30.06.2014 08:58 14,4 C 13,9 C 89 % 1014,5 hPa 0,0 l/m 0 min 0 min 0,0 UV-I 132 W/m 18,8 km/h (3 Bft)
30.06.2014 09:00 14,4 C 13,9 C 89 % 1014,5 hPa 0,0 l/m 0 min 0 min 0,0 UV-I 185 W/m 16,7 km/h (3 Bft)
30.06.2014 09:02 14,4 C 13,9 C 89 % 1014,6 hPa 0,0 l/m 0 min 0 min 0,0 UV-I 141 W/m 20,9 km/h (4 Bft)
30.06.2014 09:04 14,4 C 14,4 C 89 % 1014,5 hPa 0,0 l/m 0 min 0 min 0,0 UV-I 179 W/m 14,6 km/h (3 Bft)
30.06.2014 09:06 14,5 C 14,4 C 89 % 1014,6 hPa 0,0 l/m 0 min 0 min 0,5 UV-I 179 W/m 20,9 km/h (4 Bft)
30.06.2014 09:08 14,6 C 13,9 C 89 % 1014,6 hPa 0,0 l/m 0 min 0 min 0,5 UV-I 209 W/m 20,9 km/h (4 Bft)
30.06.2014 09:10 14,6 C 13,9 C 89 % 1014,6 hPa 0,0 l/m 0 min 0 min 0,0 UV-I 169 W/m 18,8 km/h (3 Bft)
30.06.2014 09:12 14,6 C 13,9 C 89 % 1014,7 hPa 0,0 l/m 0 min 0 min 1,1 UV-I 193 W/m 12,6 km/h (3 Bft)
30.06.2014 09:14 14,7 C 13,9 C 89 % 1014,7 hPa 0,0 l/m 0 min 0 min 1,3 UV-I 193 W/m 2,1 km/h (1 Bft)
30.06.2014 09:16 15,0 C 14,4 C 89 % 1014,6 hPa 0,0 l/m 2 min 0 min 1,3 UV-I 615 W/m 8,4 km/h (2 Bft)
30.06.2014 09:18 15,3 C 14,4 C 88 % 1014,7 hPa 0,0 l/m 2 min 0 min 1,0 UV-I 596 W/m 16,7 km/h (3 Bft)
30.06.2014 09:20 15,4 C 14,4 C 87 % 1014,7 hPa 0,0 l/m 2 min 0 min 0,7 UV-I 596 W/m 14,6 km/h (3 Bft)
30.06.2014 09:22 15,4 C 14,4 C 86 % 1014,8 hPa 0,0 l/m 2 min 0 min 0,8 UV-I 596 W/m 18,8 km/h (3 Bft)
30.06.2014 09:24 15,5 C 14,4 C 86 % 1014,7 hPa 0,0 l/m 2 min 0 min 0,9 UV-I 585 W/m 14,6 km/h (3 Bft)
30.06.2014 09:26 15,6 C 14,4 C 86 % 1014,8 hPa 0,0 l/m 2 min 0 min 1,2 UV-I 364 W/m 16,7 km/h (3 Bft)
30.06.2014 09:28 15,6 C 14,4 C 85 % 1014,8 hPa 0,0 l/m 2 min 0 min 1,5 UV-I 645 W/m 16,7 km/h (3 Bft)
30.06.2014 09:30 15,7 C 14,4 C 85 % 1014,8 hPa 0,0 l/m 2 min 0 min 1,6 UV-I 643 W/m 16,7 km/h (3 Bft)
30.06.2014 09:32 15,9 C 15,0 C 84 % 1014,8 hPa 0,0 l/m 2 min 0 min 1,6 UV-I 638 W/m 18,8 km/h (3 Bft)
30.06.2014 09:34 15,9 C 15,0 C 83 % 1014,8 hPa 0,0 l/m 2 min 0 min 1,7 UV-I 656 W/m 14,6 km/h (3 Bft)
30.06.2014 09:36 16,2 C 15,0 C 84 % 1014,8 hPa 0,0 l/m 2 min 0 min 1,8 UV-I 719 W/m 16,7 km/h (3 Bft)
30.06.2014 09:38 16,3 C 15,6 C 83 % 1014,7 hPa 0,0 l/m 2 min 0 min 1,9 UV-I 747 W/m 18,8 km/h (3 Bft)
30.06.2014 09:40 16,6 C 15,6 C 81 % 1014,8 hPa 0,0 l/m 2 min 0 min 1,5 UV-I 816 W/m 20,9 km/h (4 Bft)
30.06.2014 09:42 16,8 C 16,1 C 81 % 1014,8 hPa 0,0 l/m 0 min 0 min 0,7 UV-I 251 W/m 16,7 km/h (3 Bft)
30.06.2014 09:44 16,9 C 16,1 C 79 % 1014,8 hPa 0,0 l/m 0 min 0 min 1,1 UV-I 313 W/m 18,8 km/h (3 Bft)
30.06.2014 09:46 17,0 C 16,1 C 80 % 1014,8 hPa 0,0 l/m 0 min 0 min 0,9 UV-I 313 W/m 8,4 km/h (2 Bft)
30.06.2014 09:48 17,0 C 16,1 C 78 % 1014,8 hPa 0,0 l/m 0 min 0 min 1,8 UV-I 313 W/m 16,7 km/h (3 Bft)
30.06.2014 09:50 17,1 C 16,1 C 78 % 1014,9 hPa 0,0 l/m 2 min 0 min 1,8 UV-I 744 W/m 16,7 km/h (3 Bft)
30.06.2014 09:52 17,2 C 16,7 C 79 % 1014,9 hPa 0,0 l/m 2 min 0 min 1,7 UV-I 742 W/m 8,4 km/h (2 Bft)
30.06.2014 09:54 17,3 C 16,7 C 77 % 1014,9 hPa 0,0 l/m 2 min 0 min 0,6 UV-I 749 W/m 18,8 km/h (3 Bft)
30.06.2014 09:56 17,2 C 16,1 C 76 % 1014,9 hPa 0,0 l/m 0 min 0 min 0,0 UV-I 151 W/m 12,6 km/h (3 Bft)
30.06.2014 09:58 17,0 C 16,1 C 78 % 1015,0 hPa 0,0 l/m 0 min 0 min 0,0 UV-I 165 W/m 25,1 km/h (4 Bft)
30.06.2014 10:00 16,6 C 15,6 C 78 % 1015,0 hPa 0,0 l/m 0 min 0 min 0,0 UV-I 121 W/m 12,6 km/h (3 Bft)
30.06.2014 10:02 16,3 C 15,0 C 79 % 1015,0 hPa 0,0 l/m 0 min 0 min 0,5 UV-I 134 W/m 18,8 km/h (3 Bft)
30.06.2014 10:04 16,0 C 15,0 C 81 % 1015,1 hPa 0,0 l/m 0 min 0 min 0,7 UV-I 174 W/m 14,6 km/h (3 Bft)
30.06.2014 10:06 15,8 C 15,0 C 81 % 1015,0 hPa 0,0 l/m 0 min 0 min 0,9 UV-I 223 W/m 16,7 km/h (3 Bft)
30.06.2014 10:08 15,8 C 15,0 C 82 % 1015,1 hPa 0,0 l/m 0 min 0 min 0,9 UV-I 202 W/m 18,8 km/h (3 Bft)
30.06.2014 10:10 15,8 C 15,0 C 81 % 1015,0 hPa 0,0 l/m 0 min 0 min 0,9 UV-I 206 W/m 16,7 km/h (3 Bft)
30.06.2014 10:12 15,8 C 15,6 C 81 % 1015,0 hPa 0,0 l/m 0 min 0 min 1,8 UV-I 246 W/m 10,5 km/h (2 Bft)
30.06.2014 10:14 16,2 C 16,1 C 82 % 1015,1 hPa 0,0 l/m 0 min 0 min 2,6 UV-I 246 W/m 14,6 km/h (3 Bft)
30.06.2014 10:16 16,4 C 16,7 C 80 % 1015,0 hPa 0,0 l/m 0 min 0 min 1,7 UV-I 246 W/m 12,6 km/h (3 Bft)
30.06.2014 10:18 16,5 C 17,2 C 78 % 1015,1 hPa 0,0 l/m 2 min 0 min 0,7 UV-I 661 W/m 18,8 km/h (3 Bft)
30.06.2014 10:20 16,7 C 17,2 C 78 % 1015,1 hPa 0,0 l/m 2 min 0 min 0,0 UV-I 661 W/m 20,9 km/h (4 Bft)
30.06.2014 10:22 16,8 C 16,7 C 78 % 1015,1 hPa 0,0 l/m 0 min 0 min 0,0 UV-I 183 W/m 20,9 km/h (4 Bft)
30.06.2014 10:24 16,7 C 16,7 C 78 % 1015,1 hPa 0,0 l/m 0 min 0 min 0,0 UV-I 188 W/m 16,7 km/h (3 Bft)
30.06.2014 10:26 16,5 C 16,1 C 79 % 1015,2 hPa 0,0 l/m 0 min 0 min 0,5 UV-I 183 W/m 10,5 km/h (2 Bft)
30.06.2014 10:28 16,5 C 16,1 C 80 % 1015,1 hPa 0,0 l/m 0 min 0 min 0,0 UV-I 162 W/m 16,7 km/h (3 Bft)
30.06.2014 10:30 16,3 C 15,6 C 80 % 1015,1 hPa 0,0 l/m 0 min 2 min 0,0 UV-I 128 W/m 14,6 km/h (3 Bft)
30.06.2014 10:32 16,2 C 15,6 C 79 % 1015,2 hPa 0,0 l/m 0 min 2 min 0,0 UV-I 116 W/m 14,6 km/h (3 Bft)
30.06.2014 10:34 16,1 C 15,0 C 80 % 1015,2 hPa 0,0 l/m 0 min 2 min 0,0 UV-I 109 W/m 16,7 km/h (3 Bft)
30.06.2014 10:36 15,9 C 15,0 C 80 % 1015,2 hPa 0,0 l/m 0 min 2 min 0,0 UV-I 123 W/m 18,8 km/h (3 Bft)
30.06.2014 10:38 15,9 C 15,0 C 82 % 1015,3 hPa 0,0 l/m 0 min 0 min 0,0 UV-I 153 W/m 16,7 km/h (3 Bft)
30.06.2014 10:40 15,9 C 15,0 C 83 % 1015,2 hPa 0,0 l/m 0 min 0 min 0,7 UV-I 211 W/m 14,6 km/h (3 Bft)
30.06.2014 10:42 16,0 C 15,6 C 83 % 1015,2 hPa 0,0 l/m 0 min 2 min 0,9 UV-I 241 W/m 14,6 km/h (3 Bft)
30.06.2014 10:44 16,0 C 15,6 C 83 % 1015,2 hPa 0,0 l/m 0 min 0 min 1,9 UV-I 250 W/m 14,6 km/h (3 Bft)
30.06.2014 10:46 16,1 C 15,6 C 83 % 1015,3 hPa 0,0 l/m 0 min 0 min 1,0 UV-I 248 W/m 14,6 km/h (3 Bft)
30.06.2014 10:48 16,0 C 16,1 C 83 % 1015,2 hPa 0,0 l/m 0 min 0 min 1,2 UV-I 278 W/m 14,6 km/h (3 Bft)
30.06.2014 10:50 15,9 C 16,1 C 83 % 1015,3 hPa 0,0 l/m 0 min 0 min 1,4 UV-I 276 W/m 12,6 km/h (3 Bft)
30.06.2014 10:52 15,9 C 16,1 C 83 % 1015,3 hPa 0,0 l/m 0 min 0 min 2,1 UV-I 343 W/m 14,6 km/h (3 Bft)
30.06.2014 10:54 16,2 C 17,2 C 84 % 1015,3 hPa 0,0 l/m 0 min 0 min 3,4 UV-I 343 W/m 12,6 km/h (3 Bft)
30.06.2014 10:56 16,7 C 18,3 C 84 % 1015,3 hPa 0,0 l/m 2 min 0 min 3,7 UV-I 954 W/m 12,6 km/h (3 Bft)
30.06.2014 10:58 17,2 C 20,0 C 82 % 1015,2 hPa 0,0 l/m 2 min 0 min 3,8 UV-I 1021 W/m 14,6 km/h (3 Bft)
30.06.2014 11:00 17,7 C 20,6 C 82 % 1015,2 hPa 0,0 l/m 2 min 0 min 2,1 UV-I 1021 W/m 12,6 km/h (3 Bft)
30.06.2014 11:02 17,8 C 20,6 C 79 % 1015,2 hPa 0,0 l/m 2 min 0 min 2,3 UV-I 427 W/m 18,8 km/h (3 Bft)
30.06.2014 11:04 17,7 C 20,0 C 78 % 1015,3 hPa 0,0 l/m 0 min 0 min 0,0 UV-I 155 W/m 20,9 km/h (4 Bft)
30.06.2014 11:06 17,6 C 18,9 C 78 % 1015,4 hPa 0,0 l/m 0 min 0 min 0,0 UV-I 121 W/m 18,8 km/h (3 Bft)
30.06.2014 11:08 17,3 C 17,2 C 79 % 1015,4 hPa 0,0 l/m 0 min 2 min 0,0 UV-I 121 W/m 25,1 km/h (4 Bft)
30.06.2014 11:10 16,9 C 15,6 C 81 % 1015,4 hPa 0,0 l/m 0 min 2 min 0,0 UV-I 141 W/m 20,9 km/h (4 Bft)
30.06.2014 11:12 16,4 C 14,4 C 83 % 1015,5 hPa 0,0 l/m 0 min 2 min 0,0 UV-I 153 W/m 10,5 km/h (2 Bft)
30.06.2014 11:14 16,1 C 14,4 C 86 % 1015,5 hPa 0,0 l/m 0 min 2 min 0,0 UV-I 160 W/m 8,4 km/h (2 Bft)
30.06.2014 11:16 15,7 C 13,9 C 86 % 1015,5 hPa 0,2 l/m 0 min 2 min 0,6 UV-I 179 W/m 18,8 km/h (3 Bft)
30.06.2014 11:18 15,4 C 13,9 C 88 % 1015,5 hPa 0,0 l/m 0 min 2 min 0,6 UV-I 186 W/m 14,6 km/h (3 Bft)
30.06.2014 11:20 15,2 C 13,9 C 89 % 1015,5 hPa 0,0 l/m 0 min 2 min 0,7 UV-I 195 W/m 16,7 km/h (3 Bft)
30.06.2014 11:22 15,2 C 13,9 C 90 % 1015,5 hPa 0,0 l/m 0 min 2 min 0,8 UV-I 204 W/m 10,5 km/h (2 Bft)
30.06.2014 11:24 15,2 C 13,9 C 91 % 1015,6 hPa 0,0 l/m 0 min 2 min 1,0 UV-I 211 W/m 10,5 km/h (2 Bft)
30.06.2014 11:26 15,3 C 13,9 C 92 % 1015,5 hPa 0,0 l/m 0 min 0 min 1,1 UV-I 214 W/m 4,2 km/h (1 Bft)
30.06.2014 11:28 15,4 C 14,4 C 92 % 1015,6 hPa 0,0 l/m 0 min 0 min 1,3 UV-I 227 W/m 10,5 km/h (2 Bft)
30.06.2014 11:30 15,3 C 14,4 C 92 % 1015,6 hPa 0,0 l/m 0 min 0 min 1,5 UV-I 237 W/m 8,4 km/h (2 Bft)
30.06.2014 11:32 15,5 C 14,4 C 92 % 1015,6 hPa 0,0 l/m 0 min 0 min 1,7 UV-I 255 W/m 6,3 km/h (2 Bft)
30.06.2014 11:34 15,4 C 14,4 C 92 % 1015,6 hPa 0,0 l/m 0 min 0 min 1,9 UV-I 318 W/m 12,6 km/h (3 Bft)
30.06.2014 11:36 15,5 C 14,4 C 91 % 1015,6 hPa 0,0 l/m 0 min 0 min 3,1 UV-I 359 W/m 12,6 km/h (3 Bft)
30.06.2014 11:38 15,8 C 15,0 C 91 % 1015,7 hPa 0,0 l/m 2 min 0 min 2,9 UV-I 475 W/m 8,4 km/h (2 Bft)
30.06.2014 11:40 16,1 C 16,1 C 91 % 1015,6 hPa 0,0 l/m 2 min 0 min 4,4 UV-I 925 W/m 10,5 km/h (2 Bft)
30.06.2014 11:42 16,7 C 16,7 C 90 % 1015,6 hPa 0,0 l/m 2 min 0 min 4,7 UV-I 967 W/m 10,5 km/h (2 Bft)
30.06.2014 11:44 17,1 C 17,8 C 88 % 1015,6 hPa 0,0 l/m 2 min 0 min 4,6 UV-I 944 W/m 20,9 km/h (4 Bft)
30.06.2014 11:46 17,2 C 18,3 C 84 % 1015,6 hPa 0,0 l/m 2 min 0 min 4,7 UV-I 956 W/m 18,8 km/h (3 Bft)
30.06.2014 11:48 17,4 C 19,4 C 84 % 1015,6 hPa 0,0 l/m 2 min 0 min 4,8 UV-I 974 W/m 8,4 km/h (2 Bft)
30.06.2014 11:50 17,8 C 20,0 C 83 % 1015,6 hPa 0,0 l/m 2 min 0 min 4,8 UV-I 967 W/m 10,5 km/h (2 Bft)
30.06.2014 11:52 18,2 C 20,6 C 82 % 1015,6 hPa 0,0 l/m 2 min 0 min 4,7 UV-I 939 W/m 8,4 km/h (2 Bft)
30.06.2014 11:54 18,4 C 20,6 C 80 % 1015,6 hPa 0,0 l/m 2 min 0 min 4,6 UV-I 898 W/m 6,3 km/h (2 Bft)
30.06.2014 11:56 18,3 C 20,0 C 77 % 1015,7 hPa 0,0 l/m 2 min 0 min 4,8 UV-I 933 W/m 16,7 km/h (3 Bft)
30.06.2014 11:58 18,0 C 18,3 C 76 % 1015,6 hPa 0,0 l/m 2 min 0 min 4,6 UV-I 933 W/m 18,8 km/h (3 Bft)
30.06.2014 12:00 17,8 C 19,4 C 78 % 1015,6 hPa 0,0 l/m 2 min 0 min 4,7 UV-I 902 W/m 20,9 km/h (4 Bft)
30.06.2014 12:02 17,9 C 19,4 C 77 % 1015,7 hPa 0,0 l/m 2 min 0 min 4,7 UV-I 888 W/m 16,7 km/h (3 Bft)
30.06.2014 12:06 18,4 C 21,1 C 78 % 1015,6 hPa 0,0 l/m 2 min 0 min 4,7 UV-I 905 W/m 14,6 km/h (3 Bft)
30.06.2014 12:08 18,7 C 21,7 C 77 % 1015,6 hPa 0,0 l/m 2 min 0 min 4,8 UV-I 942 W/m 18,8 km/h (3 Bft)
30.06.2014 12:10 18,6 C 20,6 C 72 % 1015,6 hPa 0,0 l/m 2 min 0 min 2,6 UV-I 756 W/m 20,9 km/h (4 Bft)
30.06.2014 12:12 18,7 C 21,7 C 73 % 1015,6 hPa 0,0 l/m 2 min 0 min 4,8 UV-I 946 W/m 23,0 km/h (4 Bft)
30.06.2014 12:14 19,1 C 21,7 C 74 % 1015,6 hPa 0,0 l/m 2 min 0 min 4,5 UV-I 946 W/m 20,9 km/h (4 Bft)
30.06.2014 12:16 19,5 C 22,8 C 73 % 1015,6 hPa 0,0 l/m 2 min 0 min 4,7 UV-I 995 W/m 25,1 km/h (4 Bft)
30.06.2014 12:18 19,8 C 22,8 C 70 % 1015,7 hPa 0,0 l/m 2 min 0 min 1,7 UV-I 990 W/m 27,2 km/h (4 Bft)
30.06.2014 12:20 19,4 C 21,1 C 69 % 1015,8 hPa 0,0 l/m 0 min 0 min 1,0 UV-I 190 W/m 25,1 km/h (4 Bft)
30.06.2014 12:22 18,8 C 19,4 C 69 % 1015,9 hPa 0,0 l/m 0 min 0 min 0,0 UV-I 146 W/m 20,9 km/h (4 Bft)
30.06.2014 12:24 18,2 C 18,3 C 70 % 1015,9 hPa 0,0 l/m 0 min 0 min 0,0 UV-I 127 W/m 18,8 km/h (3 Bft)
30.06.2014 12:26 17,4 C 17,2 C 69 % 1015,9 hPa 0,0 l/m 0 min 0 min 0,5 UV-I 178 W/m 33,5 km/h (5 Bft)
30.06.2014 12:28 16,8 C 16,7 C 70 % 1015,9 hPa 0,0 l/m 0 min 0 min 1,2 UV-I 239 W/m 33,5 km/h (5 Bft)
30.06.2014 12:30 16,4 C 16,1 C 72 % 1015,9 hPa 0,0 l/m 0 min 0 min 1,5 UV-I 276 W/m 35,6 km/h (5 Bft)
30.06.2014 12:32 16,1 C 16,7 C 73 % 1015,9 hPa 0,0 l/m 0 min 0 min 1,9 UV-I 329 W/m 29,3 km/h (5 Bft)
30.06.2014 12:34 15,9 C 16,7 C 74 % 1015,9 hPa 0,0 l/m 0 min 0 min 1,7 UV-I 329 W/m 25,1 km/h (4 Bft)
30.06.2014 12:36 15,9 C 16,1 C 74 % 1015,9 hPa 0,0 l/m 0 min 0 min 1,5 UV-I 267 W/m 27,2 km/h (4 Bft)
30.06.2014 12:38 15,7 C 15,0 C 77 % 1015,9 hPa 0,0 l/m 0 min 2 min 1,2 UV-I 229 W/m 23,0 km/h (4 Bft)
30.06.2014 12:40 15,4 C 14,4 C 78 % 1015,9 hPa 0,0 l/m 0 min 2 min 1,0 UV-I 211 W/m 20,9 km/h (4 Bft)
30.06.2014 12:42 15,2 C 13,9 C 80 % 1015,9 hPa 0,0 l/m 0 min 2 min 0,9 UV-I 202 W/m 16,7 km/h (3 Bft)
30.06.2014 12:44 15,0 C 13,9 C 82 % 1015,9 hPa 0,0 l/m 0 min 2 min 0,8 UV-I 199 W/m 16,7 km/h (3 Bft)
30.06.2014 12:46 14,8 C 13,3 C 83 % 1015,9 hPa 0,0 l/m 0 min 2 min 0,8 UV-I 199 W/m 16,7 km/h (3 Bft)
30.06.2014 12:48 14,7 C 13,3 C 84 % 1015,9 hPa 0,0 l/m 0 min 2 min 0,8 UV-I 213 W/m 18,8 km/h (3 Bft)
30.06.2014 12:50 14,6 C 13,3 C 85 % 1015,9 hPa 0,0 l/m 0 min 2 min 0,9 UV-I 234 W/m 14,6 km/h (3 Bft)
30.06.2014 12:52 14,7 C 13,3 C 86 % 1015,8 hPa 0,0 l/m 0 min 2 min 1,1 UV-I 244 W/m 12,6 km/h (3 Bft)
30.06.2014 12:54 14,7 C 13,3 C 86 % 1015,9 hPa 0,0 l/m 0 min 0 min 1,2 UV-I 248 W/m 14,6 km/h (3 Bft)
30.06.2014 12:56 14,8 C 13,9 C 86 % 1015,9 hPa 0,0 l/m 0 min 0 min 1,2 UV-I 258 W/m 14,6 km/h (3 Bft)
30.06.2014 12:58 15,0 C 13,9 C 87 % 1015,9 hPa 0,0 l/m 0 min 0 min 1,2 UV-I 258 W/m 8,4 km/h (2 Bft)
30.06.2014 13:00 15,2 C 13,9 C 86 % 1015,9 hPa 0,0 l/m 0 min 0 min 1,2 UV-I 255 W/m 14,6 km/h (3 Bft)
30.06.2014 13:02 15,2 C 13,9 C 84 % 1015,8 hPa 0,0 l/m 0 min 0 min 1,2 UV-I 253 W/m 18,8 km/h (3 Bft)
30.06.2014 13:04 15,2 C 13,9 C 82 % 1015,8 hPa 0,0 l/m 0 min 0 min 1,2 UV-I 251 W/m 14,6 km/h (3 Bft)
30.06.2014 13:06 15,3 C 13,9 C 82 % 1015,8 hPa 0,0 l/m 0 min 0 min 1,1 UV-I 243 W/m 12,6 km/h (3 Bft)
30.06.2014 13:08 15,4 C 13,9 C 82 % 1015,8 hPa 0,0 l/m 0 min 0 min 1,0 UV-I 237 W/m 16,7 km/h (3 Bft)
30.06.2014 13:10 15,6 C 14,4 C 82 % 1015,8 hPa 0,0 l/m 0 min 0 min 1,0 UV-I 234 W/m 12,6 km/h (3 Bft)
30.06.2014 13:12 15,6 C 14,4 C 82 % 1015,9 hPa 0,0 l/m 0 min 0 min 1,0 UV-I 237 W/m 12,6 km/h (3 Bft)
30.06.2014 13:14 15,6 C 14,4 C 81 % 1015,8 hPa 0,0 l/m 0 min 0 min 1,1 UV-I 241 W/m 16,7 km/h (3 Bft)
30.06.2014 13:16 15,7 C 14,4 C 82 % 1015,8 hPa 0,0 l/m 0 min 0 min 1,1 UV-I 244 W/m 14,6 km/h (3 Bft)
30.06.2014 13:18 15,7 C 15,0 C 82 % 1015,8 hPa 0,0 l/m 0 min 0 min 1,2 UV-I 258 W/m 12,6 km/h (3 Bft)
30.06.2014 13:20 15,8 C 15,0 C 83 % 1015,8 hPa 0,0 l/m 0 min 0 min 1,3 UV-I 272 W/m 10,5 km/h (2 Bft)
30.06.2014 13:22 15,9 C 15,6 C 82 % 1015,8 hPa 0,0 l/m 0 min 0 min 1,4 UV-I 288 W/m 10,5 km/h (2 Bft)
30.06.2014 13:24 15,9 C 15,6 C 82 % 1015,8 hPa 0,0 l/m 0 min 0 min 1,5 UV-I 313 W/m 14,6 km/h (3 Bft)
30.06.2014 13:26 16,1 C 16,1 C 82 % 1015,7 hPa 0,0 l/m 0 min 0 min 1,7 UV-I 332 W/m 6,3 km/h (2 Bft)
30.06.2014 13:28 16,3 C 16,1 C 82 % 1015,8 hPa 0,0 l/m 0 min 0 min 1,8 UV-I 355 W/m 14,6 km/h (3 Bft)
30.06.2014 13:30 16,4 C 16,7 C 80 % 1015,7 hPa 0,0 l/m 0 min 0 min 2,0 UV-I 401 W/m 14,6 km/h (3 Bft)
30.06.2014 13:32 16,6 C 16,7 C 80 % 1015,8 hPa 0,0 l/m 2 min 0 min 2,7 UV-I 543 W/m 12,6 km/h (3 Bft)
30.06.2014 13:34 16,8 C 17,2 C 78 % 1015,8 hPa 0,0 l/m 2 min 0 min 2,7 UV-I 531 W/m 16,7 km/h (3 Bft)
30.06.2014 13:36 17,2 C 17,2 C 76 % 1015,7 hPa 0,0 l/m 2 min 0 min 3,6 UV-I 531 W/m 20,9 km/h (4 Bft)
30.06.2014 13:38 17,8 C 18,3 C 78 % 1015,7 hPa 0,0 l/m 2 min 0 min 3,5 UV-I 613 W/m 18,8 km/h (3 Bft)
30.06.2014 13:40 18,0 C 18,3 C 73 % 1015,7 hPa 0,0 l/m 2 min 0 min 2,6 UV-I 478 W/m 20,9 km/h (4 Bft)
30.06.2014 13:42 18,1 C 18,9 C 72 % 1015,8 hPa 0,0 l/m 2 min 0 min 3,1 UV-I 517 W/m 14,6 km/h (3 Bft)
30.06.2014 13:44 18,1 C 18,9 C 71 % 1015,8 hPa 0,0 l/m 0 min 0 min 2,8 UV-I 457 W/m 12,6 km/h (3 Bft)
30.06.2014 13:46 18,2 C 18,9 C 72 % 1015,7 hPa 0,0 l/m 2 min 0 min 3,6 UV-I 541 W/m 18,8 km/h (3 Bft)
30.06.2014 13:48 18,2 C 18,9 C 70 % 1015,7 hPa 0,0 l/m 2 min 0 min 3,9 UV-I 664 W/m 18,8 km/h (3 Bft)
30.06.2014 13:50 18,2 C 19,4 C 68 % 1015,7 hPa 0,0 l/m 2 min 0 min 3,9 UV-I 693 W/m 16,7 km/h (3 Bft)
30.06.2014 13:52 18,6 C 19,4 C 72 % 1015,7 hPa 0,0 l/m 2 min 0 min 3,7 UV-I 693 W/m 14,6 km/h (3 Bft)
30.06.2014 13:54 18,6 C 19,4 C 69 % 1015,7 hPa 0,0 l/m 2 min 0 min 3,8 UV-I 800 W/m 18,8 km/h (3 Bft)
30.06.2014 13:56 18,8 C 20,0 C 72 % 1015,8 hPa 0,0 l/m 2 min 0 min 3,4 UV-I 606 W/m 20,9 km/h (4 Bft)
30.06.2014 13:58 18,8 C 19,4 C 70 % 1015,7 hPa 0,0 l/m 2 min 0 min 4,5 UV-I 548 W/m 14,6 km/h (3 Bft)
30.06.2014 14:00 18,9 C 20,0 C 70 % 1015,7 hPa 0,0 l/m 2 min 0 min 5,6 UV-I 548 W/m 23,0 km/h (4 Bft)
30.06.2014 14:02 19,5 C 20,6 C 73 % 1015,7 hPa 0,0 l/m 2 min 0 min 5,2 UV-I 1157 W/m 18,8 km/h (3 Bft)
30.06.2014 14:04 19,8 C 20,6 C 69 % 1015,7 hPa 0,0 l/m 2 min 0 min 3,2 UV-I 475 W/m 23,0 km/h (4 Bft)
30.06.2014 14:06 19,8 C 20,0 C 66 % 1015,8 hPa 0,0 l/m 0 min 0 min 3,3 UV-I 469 W/m 23,0 km/h (4 Bft)
30.06.2014 14:08 19,4 C 18,9 C 64 % 1015,8 hPa 0,0 l/m 0 min 0 min 2,5 UV-I 359 W/m 25,1 km/h (4 Bft)
30.06.2014 14:10 19,1 C 18,9 C 65 % 1015,8 hPa 0,0 l/m 0 min 0 min 3,5 UV-I 359 W/m 23,0 km/h (4 Bft)
30.06.2014 14:12 18,9 C 19,4 C 67 % 1015,7 hPa 0,0 l/m 0 min 0 min 2,0 UV-I 434 W/m 12,6 km/h (3 Bft)
30.06.2014 14:14 18,8 C 18,9 C 67 % 1015,7 hPa 0,0 l/m 0 min 0 min 1,7 UV-I 214 W/m 23,0 km/h (4 Bft)
30.06.2014 14:16 18,7 C 18,3 C 68 % 1015,9 hPa 0,0 l/m 0 min 0 min 1,7 UV-I 216 W/m 18,8 km/h (3 Bft)
30.06.2014 14:18 18,5 C 18,3 C 67 % 1015,8 hPa 0,0 l/m 0 min 0 min 2,1 UV-I 232 W/m 16,7 km/h (3 Bft)
30.06.2014 14:20 18,4 C 18,3 C 68 % 1015,9 hPa 0,0 l/m 0 min 0 min 4,5 UV-I 248 W/m 10,5 km/h (2 Bft)
30.06.2014 14:22 18,7 C 20,6 C 68 % 1015,9 hPa 0,0 l/m 2 min 0 min 4,9 UV-I 1000 W/m 23,0 km/h (4 Bft)
30.06.2014 14:24 19,1 C 20,6 C 67 % 1015,9 hPa 0,0 l/m 2 min 0 min 4,2 UV-I 594 W/m 31,4 km/h (5 Bft)
30.06.2014 14:26 19,3 C 21,1 C 65 % 1015,9 hPa 0,0 l/m 2 min 0 min 4,7 UV-I 814 W/m 29,3 km/h (5 Bft)
30.06.2014 14:28 19,6 C 20,6 C 65 % 1016,0 hPa 0,0 l/m 2 min 0 min 3,3 UV-I 814 W/m 31,4 km/h (5 Bft)
30.06.2014 14:30 19,5 C 20,0 C 65 % 1016,0 hPa 0,0 l/m 0 min 0 min 2,7 UV-I 420 W/m 20,9 km/h (4 Bft)
30.06.2014 14:32 19,3 C 20,0 C 68 % 1016,0 hPa 0,0 l/m 0 min 0 min 4,9 UV-I 373 W/m 23,0 km/h (4 Bft)
30.06.2014 14:34 19,3 C 19,4 C 65 % 1016,0 hPa 0,0 l/m 0 min 0 min 3,1 UV-I 373 W/m 33,5 km/h (5 Bft)
30.06.2014 14:36 19,0 C 18,9 C 64 % 1016,1 hPa 0,0 l/m 0 min 0 min 2,0 UV-I 220 W/m 25,1 km/h (4 Bft)
30.06.2014 14:38 18,6 C 17,8 C 63 % 1016,1 hPa 0,0 l/m 0 min 0 min 2,0 UV-I 225 W/m 20,9 km/h (4 Bft)
30.06.2014 14:40 18,3 C 17,8 C 66 % 1016,1 hPa 0,0 l/m 0 min 0 min 1,9 UV-I 214 W/m 23,0 km/h (4 Bft)
30.06.2014 14:42 18,3 C 17,8 C 68 % 1016,1 hPa 0,0 l/m 0 min 0 min 1,7 UV-I 214 W/m 16,7 km/h (3 Bft)
30.06.2014 14:44 18,2 C 17,2 C 65 % 1016,1 hPa 0,0 l/m 0 min 0 min 1,6 UV-I 185 W/m 23,0 km/h (4 Bft)
30.06.2014 14:46 18,2 C 17,2 C 67 % 1016,1 hPa 0,0 l/m 0 min 0 min 1,7 UV-I 264 W/m 20,9 km/h (4 Bft)
30.06.2014 14:48 18,1 C 17,8 C 65 % 1016,1 hPa 0,0 l/m 2 min 0 min 4,3 UV-I 960 W/m 29,3 km/h (5 Bft)
30.06.2014 14:50 18,3 C 17,8 C 65 % 1016,2 hPa 0,0 l/m 2 min 0 min 2,0 UV-I 960 W/m 25,1 km/h (4 Bft)
30.06.2014 14:52 18,1 C 17,8 C 66 % 1016,2 hPa 0,0 l/m 0 min 0 min 1,7 UV-I 207 W/m 23,0 km/h (4 Bft)
30.06.2014 14:54 18,1 C 17,8 C 68 % 1016,2 hPa 0,0 l/m 0 min 0 min 1,4 UV-I 188 W/m 23,0 km/h (4 Bft)
30.06.2014 14:56 18,1 C 17,2 C 68 % 1016,2 hPa 0,0 l/m 0 min 0 min 1,2 UV-I 178 W/m 29,3 km/h (5 Bft)
30.06.2014 14:58 17,8 C 17,2 C 66 % 1016,2 hPa 0,0 l/m 0 min 0 min 1,0 UV-I 163 W/m 27,2 km/h (4 Bft)
30.06.2014 15:00 17,6 C 17,2 C 67 % 1016,2 hPa 0,0 l/m 0 min 0 min 0,9 UV-I 153 W/m 27,2 km/h (4 Bft)
30.06.2014 15:02 17,4 C 16,7 C 66 % 1016,3 hPa 0,0 l/m 0 min 0 min 0,7 UV-I 141 W/m 20,9 km/h (4 Bft)
30.06.2014 15:04 17,3 C 16,7 C 66 % 1016,3 hPa 0,0 l/m 0 min 0 min 0,5 UV-I 128 W/m 23,0 km/h (4 Bft)
30.06.2014 15:06 17,2 C 16,1 C 67 % 1016,3 hPa 0,0 l/m 0 min 0 min 0,0 UV-I 128 W/m 20,9 km/h (4 Bft)
30.06.2014 15:08 17,1 C 16,1 C 69 % 1016,3 hPa 0,0 l/m 0 min 2 min 0,0 UV-I 137 W/m 23,0 km/h (4 Bft)
30.06.2014 15:10 16,9 C 15,6 C 69 % 1016,5 hPa 0,0 l/m 0 min 2 min 0,5 UV-I 160 W/m 18,8 km/h (3 Bft)
30.06.2014 15:12 16,8 C 15,6 C 69 % 1016,4 hPa 0,0 l/m 0 min 2 min 0,6 UV-I 179 W/m 18,8 km/h (3 Bft)
30.06.2014 15:14 16,7 C 15,0 C 71 % 1016,3 hPa 0,0 l/m 0 min 2 min 0,7 UV-I 200 W/m 16,7 km/h (3 Bft)
30.06.2014 15:16 16,5 C 14,4 C 71 % 1016,4 hPa 0,0 l/m 0 min 2 min 0,8 UV-I 220 W/m 25,1 km/h (4 Bft)
30.06.2014 15:18 16,4 C 14,4 C 74 % 1016,4 hPa 0,0 l/m 0 min 2 min 0,9 UV-I 221 W/m 10,5 km/h (2 Bft)
30.06.2014 15:20 16,3 C 14,4 C 75 % 1016,3 hPa 0,0 l/m 0 min 2 min 0,9 UV-I 218 W/m 14,6 km/h (3 Bft)
30.06.2014 15:22 16,4 C 15,0 C 76 % 1016,4 hPa 0,0 l/m 0 min 0 min 1,0 UV-I 236 W/m 10,5 km/h (2 Bft)
30.06.2014 15:24 16,5 C 15,0 C 76 % 1016,4 hPa 0,0 l/m 0 min 0 min 1,1 UV-I 255 W/m 16,7 km/h (3 Bft)
30.06.2014 15:26 16,6 C 15,6 C 75 % 1016,4 hPa 0,0 l/m 0 min 0 min 1,3 UV-I 278 W/m 18,8 km/h (3 Bft)
30.06.2014 15:28 16,6 C 16,1 C 72 % 1016,4 hPa 0,0 l/m 0 min 0 min 1,7 UV-I 345 W/m 20,9 km/h (4 Bft)
30.06.2014 15:30 16,8 C 16,7 C 73 % 1016,3 hPa 0,0 l/m 0 min 0 min 2,8 UV-I 345 W/m 20,9 km/h (4 Bft)
30.06.2014 15:32 17,3 C 17,8 C 74 % 1016,3 hPa 0,0 l/m 0 min 0 min 2,6 UV-I 345 W/m 16,7 km/h (3 Bft)
30.06.2014 15:33 17,5 C 17,8 C 72 % 1016,3 hPa 0,0 l/m 0 min 0 min 2,7 UV-I 345 W/m 23,0 km/h (4 Bft)
30.06.2014 15:34 17,7 C 18,3 C 72 % 1016,3 hPa 0,0 l/m 0 min 0 min 3,5 UV-I 345 W/m 16,7 km/h (3 Bft)
30.06.2014 15:35 18,0 C 18,3 C 72 % 1016,3 hPa 0,0 l/m 1 min 0 min 3,1 UV-I 719 W/m 27,2 km/h (4 Bft)
30.06.2014 15:36 18,1 C 18,9 C 70 % 1016,4 hPa 0,0 l/m 1 min 0 min 3,1 UV-I 686 W/m 16,7 km/h (3 Bft)
30.06.2014 15:37 18,3 C 18,9 C 71 % 1016,3 hPa 0,0 l/m 1 min 0 min 3,5 UV-I 729 W/m 16,7 km/h (3 Bft)
30.06.2014 15:38 18,5 C 18,9 C 68 % 1016,3 hPa 0,0 l/m 1 min 0 min 2,6 UV-I 729 W/m 16,7 km/h (3 Bft)
30.06.2014 15:39 18,6 C 18,9 C 69 % 1016,3 hPa 0,0 l/m 1 min 0 min 3,9 UV-I 729 W/m 20,9 km/h (4 Bft)
30.06.2014 15:40 18,6 C 18,9 C 70 % 1016,3 hPa 0,0 l/m 0 min 0 min 2,8 UV-I 264 W/m 23,0 km/h (4 Bft)
30.06.2014 15:41 18,6 C 18,3 C 69 % 1016,3 hPa 0,0 l/m 0 min 0 min 1,7 UV-I 246 W/m 29,3 km/h (5 Bft)
30.06.2014 15:42 18,4 C 18,3 C 68 % 1016,3 hPa 0,0 l/m 0 min 0 min 1,7 UV-I 251 W/m 18,8 km/h (3 Bft)
30.06.2014 15:43 18,3 C 18,3 C 69 % 1016,4 hPa 0,0 l/m 0 min 0 min 2,2 UV-I 297 W/m 20,9 km/h (4 Bft)
30.06.2014 15:44 18,2 C 17,8 C 69 % 1016,4 hPa 0,0 l/m 0 min 0 min 1,8 UV-I 279 W/m 10,5 km/h (2 Bft)
30.06.2014 15:45 18,1 C 17,8 C 70 % 1016,4 hPa 0,0 l/m 0 min 0 min 1,7 UV-I 229 W/m 16,7 km/h (3 Bft)
30.06.2014 15:46 18,1 C 17,8 C 70 % 1016,4 hPa 0,0 l/m 0 min 0 min 1,4 UV-I 230 W/m 16,7 km/h (3 Bft)
30.06.2014 15:47 18,0 C 17,8 C 70 % 1016,4 hPa 0,0 l/m 0 min 0 min 1,2 UV-I 220 W/m 14,6 km/h (3 Bft)
30.06.2014 15:48 17,9 C 17,2 C 70 % 1016,4 hPa 0,0 l/m 0 min 0 min 1,0 UV-I 206 W/m 12,6 km/h (3 Bft)
30.06.2014 15:49 17,9 C 17,2 C 71 % 1016,4 hPa 0,0 l/m 0 min 0 min 0,8 UV-I 192 W/m 16,7 km/h (3 Bft)
30.06.2014 15:50 17,9 C 17,2 C 71 % 1016,4 hPa 0,0 l/m 0 min 0 min 0,7 UV-I 190 W/m 27,2 km/h (4 Bft)
30.06.2014 15:51 17,8 C 17,2 C 71 % 1016,4 hPa 0,0 l/m 0 min 0 min 0,7 UV-I 192 W/m 23,0 km/h (4 Bft)
30.06.2014 15:52 17,7 C 17,2 C 70 % 1016,4 hPa 0,0 l/m 0 min 0 min 0,6 UV-I 186 W/m 23,0 km/h (4 Bft)
30.06.2014 15:53 17,7 C 16,7 C 71 % 1016,4 hPa 0,0 l/m 0 min 0 min 0,5 UV-I 181 W/m 20,9 km/h (4 Bft)
30.06.2014 15:54 17,7 C 16,7 C 71 % 1016,5 hPa 0,0 l/m 0 min 0 min 0,5 UV-I 195 W/m 18,8 km/h (3 Bft)
30.06.2014 15:55 17,7 C 17,2 C 72 % 1016,4 hPa 0,0 l/m 0 min 0 min 1,0 UV-I 195 W/m 23,0 km/h (4 Bft)
30.06.2014 15:56 17,7 C 17,2 C 73 % 1016,4 hPa 0,0 l/m 0 min 0 min 0,9 UV-I 250 W/m 27,2 km/h (4 Bft)
30.06.2014 15:57 17,7 C 17,2 C 72 % 1016,5 hPa 0,0 l/m 0 min 0 min 0,9 UV-I 251 W/m 18,8 km/h (3 Bft)
30.06.2014 15:58 17,7 C 17,2 C 73 % 1016,4 hPa 0,0 l/m 0 min 0 min 1,1 UV-I 294 W/m 25,1 km/h (4 Bft)
30.06.2014 15:59 17,7 C 17,2 C 73 % 1016,4 hPa 0,0 l/m 0 min 0 min 1,4 UV-I 332 W/m 14,6 km/h (3 Bft)
30.06.2014 16:00 17,7 C 17,2 C 73 % 1016,4 hPa 0,0 l/m 0 min 0 min 1,6 UV-I 373 W/m 20,9 km/h (4 Bft)
30.06.2014 16:01 17,7 C 17,2 C 73 % 1016,4 hPa 0,0 l/m 0 min 0 min 1,6 UV-I 350 W/m 20,9 km/h (4 Bft)
30.06.2014 16:02 17,6 C 17,2 C 72 % 1016,4 hPa 0,0 l/m 0 min 0 min 1,6 UV-I 318 W/m 12,6 km/h (3 Bft)
30.06.2014 16:03 17,6 C 17,2 C 72 % 1016,4 hPa 0,0 l/m 0 min 0 min 2,7 UV-I 318 W/m 18,8 km/h (3 Bft)
30.06.2014 16:04 17,6 C 17,2 C 72 % 1016,4 hPa 0,0 l/m 0 min 0 min 1,8 UV-I 318 W/m 12,6 km/h (3 Bft)
30.06.2014 16:05 17,5 C 17,2 C 71 % 1016,4 hPa 0,0 l/m 0 min 0 min 1,5 UV-I 267 W/m 18,8 km/h (3 Bft)
30.06.2014 16:06 17,5 C 17,2 C 72 % 1016,4 hPa 0,0 l/m 0 min 0 min 1,4 UV-I 229 W/m 12,6 km/h (3 Bft)
30.06.2014 16:07 17,5 C 17,2 C 72 % 1016,4 hPa 0,0 l/m 0 min 0 min 1,4 UV-I 214 W/m 16,7 km/h (3 Bft)
30.06.2014 16:08 17,4 C 16,7 C 71 % 1016,4 hPa 0,0 l/m 0 min 0 min 1,3 UV-I 207 W/m 10,5 km/h (2 Bft)
30.06.2014 16:09 17,4 C 16,7 C 72 % 1016,4 hPa 0,0 l/m 0 min 0 min 1,3 UV-I 202 W/m 20,9 km/h (4 Bft)
30.06.2014 16:10 17,4 C 16,7 C 72 % 1016,4 hPa 0,0 l/m 0 min 0 min 1,3 UV-I 204 W/m 23,0 km/h (4 Bft)
30.06.2014 16:11 17,3 C 16,7 C 70 % 1016,4 hPa 0,0 l/m 0 min 0 min 1,3 UV-I 206 W/m 10,5 km/h (2 Bft)
30.06.2014 16:12 17,3 C 16,7 C 71 % 1016,4 hPa 0,0 l/m 0 min 0 min 1,3 UV-I 214 W/m 8,4 km/h (2 Bft)
30.06.2014 16:13 17,2 C 16,7 C 70 % 1016,4 hPa 0,0 l/m 0 min 0 min 1,8 UV-I 262 W/m 0,0 km/h (0 Bft)
30.06.2014 16:14 17,2 C 16,7 C 72 % 1016,4 hPa 0,0 l/m 0 min 0 min 1,7 UV-I 292 W/m 18,8 km/h (3 Bft)
30.06.2014 16:15 17,3 C 17,2 C 72 % 1016,4 hPa 0,0 l/m 1 min 0 min 3,0 UV-I 780 W/m 18,8 km/h (3 Bft)
30.06.2014 16:16 17,5 C 17,2 C 71 % 1016,5 hPa 0,0 l/m 1 min 0 min 3,0 UV-I 772 W/m 23,0 km/h (4 Bft)
30.06.2014 16:17 17,7 C 17,2 C 68 % 1016,5 hPa 0,0 l/m 1 min 0 min 2,9 UV-I 738 W/m 20,9 km/h (4 Bft)
30.06.2014 16:18 17,8 C 17,8 C 67 % 1016,4 hPa 0,0 l/m 1 min 0 min 3,0 UV-I 731 W/m 16,7 km/h (3 Bft)
30.06.2014 16:19 17,8 C 17,8 C 68 % 1016,4 hPa 0,0 l/m 1 min 0 min 2,9 UV-I 717 W/m 14,6 km/h (3 Bft)
30.06.2014 16:20 17,9 C 17,8 C 67 % 1016,4 hPa 0,0 l/m 1 min 0 min 2,9 UV-I 717 W/m 12,6 km/h (3 Bft)
30.06.2014 16:21 18,1 C 17,8 C 68 % 1016,4 hPa 0,0 l/m 1 min 0 min 2,8 UV-I 717 W/m 12,6 km/h (3 Bft)
30.06.2014 16:22 18,3 C 17,8 C 71 % 1016,3 hPa 0,0 l/m 1 min 0 min 2,8 UV-I 693 W/m 18,8 km/h (3 Bft)
30.06.2014 16:23 18,3 C 17,8 C 67 % 1016,4 hPa 0,0 l/m 1 min 0 min 2,8 UV-I 694 W/m 12,6 km/h (3 Bft)
30.06.2014 16:24 18,3 C 18,3 C 67 % 1016,4 hPa 0,0 l/m 1 min 0 min 2,8 UV-I 703 W/m 10,5 km/h (2 Bft)
30.06.2014 16:25 18,3 C 18,3 C 68 % 1016,4 hPa 0,0 l/m 1 min 0 min 2,8 UV-I 728 W/m 10,5 km/h (2 Bft)
30.06.2014 16:26 18,3 C 18,3 C 66 % 1016,4 hPa 0,0 l/m 1 min 0 min 2,8 UV-I 737 W/m 20,9 km/h (4 Bft)
30.06.2014 16:27 18,4 C 18,3 C 67 % 1016,4 hPa 0,0 l/m 1 min 0 min 2,7 UV-I 742 W/m 12,6 km/h (3 Bft)
30.06.2014 16:28 18,4 C 18,3 C 67 % 1016,4 hPa 0,0 l/m 1 min 0 min 2,7 UV-I 747 W/m 14,6 km/h (3 Bft)
30.06.2014 16:29 18,6 C 18,3 C 68 % 1016,4 hPa 0,0 l/m 1 min 0 min 1,5 UV-I 729 W/m 14,6 km/h (3 Bft)
30.06.2014 16:30 18,8 C 18,3 C 69 % 1016,4 hPa 0,0 l/m 1 min 0 min 1,3 UV-I 729 W/m 6,3 km/h (2 Bft)
30.06.2014 16:31 18,8 C 18,3 C 67 % 1016,4 hPa 0,0 l/m 0 min 0 min 1,4 UV-I 200 W/m 14,6 km/h (3 Bft)
30.06.2014 16:32 18,8 C 18,3 C 67 % 1016,5 hPa 0,0 l/m 0 min 0 min 1,5 UV-I 200 W/m 20,9 km/h (4 Bft)
30.06.2014 16:34 18,6 C 17,8 C 65 % 1016,5 hPa 0,0 l/m 0 min 0 min 1,2 UV-I 197 W/m 16,7 km/h (3 Bft)
30.06.2014 16:36 18,3 C 17,8 C 66 % 1016,4 hPa 0,0 l/m 0 min 0 min 1,1 UV-I 181 W/m 16,7 km/h (3 Bft)
30.06.2014 16:38 18,2 C 17,8 C 67 % 1016,4 hPa 0,0 l/m 0 min 0 min 2,3 UV-I 185 W/m 14,6 km/h (3 Bft)
30.06.2014 16:40 18,2 C 17,8 C 69 % 1016,4 hPa 0,0 l/m 0 min 0 min 2,4 UV-I 185 W/m 14,6 km/h (3 Bft)
30.06.2014 16:42 18,7 C 18,3 C 65 % 1016,5 hPa 0,0 l/m 0 min 0 min 2,4 UV-I 185 W/m 25,1 km/h (4 Bft)
30.06.2014 16:44 19,1 C 18,3 C 62 % 1016,5 hPa 0,0 l/m 2 min 0 min 1,9 UV-I 670 W/m 23,0 km/h (4 Bft)
30.06.2014 16:46 19,2 C 18,9 C 59 % 1016,5 hPa 0,0 l/m 2 min 0 min 2,2 UV-I 670 W/m 27,2 km/h (4 Bft)
30.06.2014 16:48 19,3 C 18,9 C 59 % 1016,5 hPa 0,0 l/m 2 min 0 min 2,2 UV-I 659 W/m 25,1 km/h (4 Bft)
30.06.2014 16:50 19,5 C 18,3 C 60 % 1016,5 hPa 0,0 l/m 0 min 0 min 2,2 UV-I 229 W/m 23,0 km/h (4 Bft)
30.06.2014 16:52 19,5 C 18,9 C 57 % 1016,5 hPa 0,0 l/m 2 min 0 min 2,2 UV-I 657 W/m 23,0 km/h (4 Bft)
30.06.2014 16:54 19,6 C 18,9 C 58 % 1016,5 hPa 0,0 l/m 2 min 0 min 2,1 UV-I 652 W/m 25,1 km/h (4 Bft)
30.06.2014 16:56 19,7 C 18,9 C 57 % 1016,6 hPa 0,0 l/m 2 min 0 min 1,7 UV-I 675 W/m 25,1 km/h (4 Bft)
30.06.2014 16:58 19,6 C 18,9 C 57 % 1016,6 hPa 0,0 l/m 2 min 0 min 1,5 UV-I 675 W/m 14,6 km/h (3 Bft)
30.06.2014 17:00 19,7 C 19,4 C 55 % 1016,6 hPa 0,0 l/m 2 min 0 min 1,3 UV-I 666 W/m 16,7 km/h (3 Bft)
30.06.2014 17:02 19,9 C 19,4 C 57 % 1016,6 hPa 0,0 l/m 2 min 0 min 1,2 UV-I 664 W/m 23,0 km/h (4 Bft)
30.06.2014 17:04 20,2 C 20,0 C 57 % 1016,6 hPa 0,0 l/m 2 min 0 min 1,2 UV-I 661 W/m 23,0 km/h (4 Bft)
30.06.2014 17:06 20,1 C 19,4 C 56 % 1016,7 hPa 0,0 l/m 2 min 0 min 1,1 UV-I 650 W/m 18,8 km/h (3 Bft)
30.06.2014 17:08 19,8 C 19,4 C 57 % 1016,6 hPa 0,0 l/m 2 min 0 min 1,1 UV-I 635 W/m 27,2 km/h (4 Bft)
30.06.2014 17:10 19,7 C 19,4 C 59 % 1016,6 hPa 0,0 l/m 2 min 0 min 1,0 UV-I 643 W/m 18,8 km/h (3 Bft)
30.06.2014 17:12 19,9 C 19,4 C 58 % 1016,7 hPa 0,0 l/m 2 min 0 min 1,0 UV-I 640 W/m 20,9 km/h (4 Bft)
30.06.2014 17:14 19,8 C 19,4 C 56 % 1016,6 hPa 0,0 l/m 2 min 0 min 1,0 UV-I 606 W/m 18,8 km/h (3 Bft)
30.06.2014 17:16 19,6 C 18,9 C 56 % 1016,7 hPa 0,0 l/m 2 min 0 min 1,0 UV-I 613 W/m 23,0 km/h (4 Bft)
30.06.2014 17:18 19,2 C 18,3 C 57 % 1016,6 hPa 0,0 l/m 2 min 0 min 0,9 UV-I 608 W/m 23,0 km/h (4 Bft)
30.06.2014 17:20 19,0 C 18,3 C 58 % 1016,7 hPa 0,0 l/m 2 min 0 min 0,9 UV-I 594 W/m 16,7 km/h (3 Bft)
30.06.2014 17:22 19,1 C 18,3 C 58 % 1016,7 hPa 0,0 l/m 2 min 0 min 0,9 UV-I 587 W/m 20,9 km/h (4 Bft)
30.06.2014 17:24 19,1 C 18,3 C 58 % 1016,7 hPa 0,0 l/m 2 min 0 min 0,8 UV-I 541 W/m 18,8 km/h (3 Bft)
30.06.2014 17:26 19,1 C 18,3 C 59 % 1016,7 hPa 0,0 l/m 0 min 0 min 0,7 UV-I 195 W/m 25,1 km/h (4 Bft)
30.06.2014 17:28 18,9 C 18,3 C 59 % 1016,7 hPa 0,0 l/m 0 min 0 min 0,8 UV-I 248 W/m 20,9 km/h (4 Bft)
30.06.2014 17:30 18,8 C 18,3 C 60 % 1016,6 hPa 0,0 l/m 2 min 0 min 0,9 UV-I 647 W/m 27,2 km/h (4 Bft)
30.06.2014 17:32 18,9 C 18,3 C 61 % 1016,7 hPa 0,0 l/m 2 min 0 min 0,8 UV-I 647 W/m 35,6 km/h (5 Bft)
30.06.2014 17:34 19,1 C 18,3 C 60 % 1016,8 hPa 0,0 l/m 2 min 0 min 0,8 UV-I 647 W/m 27,2 km/h (4 Bft)
30.06.2014 17:36 19,2 C 18,3 C 59 % 1016,7 hPa 0,0 l/m 2 min 0 min 0,8 UV-I 557 W/m 25,1 km/h (4 Bft)
30.06.2014 17:38 19,3 C 18,3 C 59 % 1016,7 hPa 0,0 l/m 2 min 0 min 0,8 UV-I 578 W/m 27,2 km/h (4 Bft)
30.06.2014 17:40 19,6 C 18,3 C 57 % 1016,7 hPa 0,0 l/m 2 min 0 min 0,8 UV-I 520 W/m 16,7 km/h (3 Bft)
30.06.2014 17:42 19,4 C 18,3 C 56 % 1016,7 hPa 0,0 l/m 0 min 0 min 0,7 UV-I 162 W/m 18,8 km/h (3 Bft)
30.06.2014 17:44 19,2 C 17,8 C 57 % 1016,7 hPa 0,0 l/m 0 min 0 min 0,7 UV-I 188 W/m 23,0 km/h (4 Bft)
30.06.2014 17:46 19,1 C 17,8 C 60 % 1016,7 hPa 0,0 l/m 2 min 0 min 0,7 UV-I 506 W/m 16,7 km/h (3 Bft)
30.06.2014 17:48 19,2 C 17,8 C 60 % 1016,7 hPa 0,0 l/m 2 min 0 min 0,7 UV-I 411 W/m 12,6 km/h (3 Bft)
30.06.2014 17:50 19,2 C 17,8 C 61 % 1016,7 hPa 0,0 l/m 2 min 0 min 0,6 UV-I 411 W/m 18,8 km/h (3 Bft)
30.06.2014 17:52 19,3 C 17,8 C 60 % 1016,7 hPa 0,0 l/m 2 min 0 min 0,6 UV-I 499 W/m 18,8 km/h (3 Bft)
30.06.2014 17:54 19,2 C 17,8 C 59 % 1016,7 hPa 0,0 l/m 2 min 0 min 0,6 UV-I 478 W/m 12,6 km/h (3 Bft)
30.06.2014 17:56 19,2 C 17,8 C 58 % 1016,7 hPa 0,0 l/m 0 min 0 min 0,5 UV-I 206 W/m 27,2 km/h (4 Bft)
30.06.2014 17:58 19,1 C 17,8 C 59 % 1016,7 hPa 0,0 l/m 0 min 0 min 0,5 UV-I 206 W/m 23,0 km/h (4 Bft)
30.06.2014 18:00 19,1 C 17,8 C 61 % 1016,7 hPa 0,0 l/m 2 min 0 min 0,5 UV-I 480 W/m 18,8 km/h (3 Bft)
30.06.2014 18:02 19,2 C 17,8 C 60 % 1016,7 hPa 0,0 l/m 2 min 0 min 0,5 UV-I 434 W/m 16,7 km/h (3 Bft)
30.06.2014 18:06 18,9 C 17,2 C 58 % 1016,6 hPa 0,0 l/m 2 min 0 min 0,5 UV-I 339 W/m 25,1 km/h (4 Bft)
30.06.2014 18:08 19,0 C 17,2 C 57 % 1016,7 hPa 0,0 l/m 2 min 0 min 0,0 UV-I 404 W/m 25,1 km/h (4 Bft)
30.06.2014 18:10 18,9 C 17,2 C 58 % 1016,7 hPa 0,0 l/m 0 min 0 min 0,0 UV-I 178 W/m 25,1 km/h (4 Bft)
30.06.2014 18:12 18,8 C 17,2 C 58 % 1016,7 hPa 0,0 l/m 2 min 0 min 0,0 UV-I 320 W/m 25,1 km/h (4 Bft)
30.06.2014 18:14 18,7 C 17,2 C 59 % 1016,7 hPa 0,0 l/m 0 min 0 min 0,0 UV-I 185 W/m 20,9 km/h (4 Bft)
30.06.2014 18:16 18,7 C 17,2 C 59 % 1016,7 hPa 0,0 l/m 0 min 0 min 0,0 UV-I 206 W/m 20,9 km/h (4 Bft)
30.06.2014 18:18 18,6 C 17,2 C 58 % 1016,7 hPa 0,0 l/m 2 min 0 min 0,0 UV-I 461 W/m 23,0 km/h (4 Bft)
30.06.2014 18:20 18,5 C 17,2 C 57 % 1016,7 hPa 0,0 l/m 2 min 0 min 0,0 UV-I 434 W/m 23,0 km/h (4 Bft)
30.06.2014 18:22 18,5 C 17,2 C 59 % 1016,7 hPa 0,0 l/m 2 min 0 min 0,0 UV-I 294 W/m 10,5 km/h (2 Bft)
30.06.2014 18:24 18,5 C 17,2 C 57 % 1016,7 hPa 0,0 l/m 0 min 0 min 0,0 UV-I 241 W/m 18,8 km/h (3 Bft)
30.06.2014 18:26 18,5 C 17,2 C 59 % 1016,7 hPa 0,0 l/m 2 min 0 min 0,0 UV-I 415 W/m 8,4 km/h (2 Bft)
30.06.2014 18:28 18,5 C 16,7 C 59 % 1016,7 hPa 0,0 l/m 2 min 0 min 0,0 UV-I 443 W/m 16,7 km/h (3 Bft)
30.06.2014 18:30 18,5 C 16,7 C 59 % 1016,7 hPa 0,0 l/m 2 min 0 min 0,0 UV-I 446 W/m 20,9 km/h (4 Bft)
30.06.2014 18:32 18,4 C 17,2 C 59 % 1016,7 hPa 0,0 l/m 2 min 0 min 0,0 UV-I 459 W/m 18,8 km/h (3 Bft)
30.06.2014 18:34 18,4 C 17,2 C 58 % 1016,7 hPa 0,0 l/m 2 min 0 min 0,0 UV-I 281 W/m 18,8 km/h (3 Bft)
30.06.2014 18:36 18,3 C 17,2 C 60 % 1016,7 hPa 0,0 l/m 2 min 0 min 0,0 UV-I 281 W/m 25,1 km/h (4 Bft)
30.06.2014 18:38 18,3 C 17,2 C 60 % 1016,7 hPa 0,0 l/m 2 min 0 min 0,0 UV-I 404 W/m 18,8 km/h (3 Bft)
30.06.2014 18:40 18,2 C 17,2 C 61 % 1016,7 hPa 0,0 l/m 2 min 0 min 0,0 UV-I 387 W/m 25,1 km/h (4 Bft)
30.06.2014 18:42 18,3 C 17,2 C 62 % 1016,7 hPa 0,0 l/m 2 min 0 min 0,0 UV-I 374 W/m 20,9 km/h (4 Bft)
30.06.2014 18:44 18,3 C 16,7 C 62 % 1016,7 hPa 0,0 l/m 2 min 0 min 0,0 UV-I 348 W/m 29,3 km/h (5 Bft)
30.06.2014 18:46 18,2 C 16,7 C 62 % 1016,7 hPa 0,0 l/m 0 min 0 min 0,0 UV-I 113 W/m 25,1 km/h (4 Bft)
30.06.2014 18:48 18,1 C 16,7 C 62 % 1016,7 hPa 0,0 l/m 0 min 0 min 0,0 UV-I 93 W/m 14,6 km/h (3 Bft)
30.06.2014 18:50 17,9 C 16,7 C 63 % 1016,7 hPa 0,0 l/m 2 min 0 min 0,0 UV-I 360 W/m 14,6 km/h (3 Bft)
30.06.2014 18:52 17,8 C 16,7 C 63 % 1016,7 hPa 0,0 l/m 2 min 0 min 0,0 UV-I 371 W/m 18,8 km/h (3 Bft)
30.06.2014 18:54 17,8 C 16,7 C 64 % 1016,7 hPa 0,0 l/m 2 min 0 min 0,0 UV-I 295 W/m 20,9 km/h (4 Bft)
30.06.2014 18:56 17,9 C 16,7 C 64 % 1016,7 hPa 0,0 l/m 2 min 0 min 0,0 UV-I 332 W/m 20,9 km/h (4 Bft)
30.06.2014 18:58 17,9 C 16,7 C 63 % 1016,7 hPa 0,0 l/m 2 min 0 min 0,0 UV-I 329 W/m 18,8 km/h (3 Bft)
30.06.2014 19:00 17,9 C 16,7 C 64 % 1016,7 hPa 0,0 l/m 2 min 0 min 0,0 UV-I 334 W/m 12,6 km/h (3 Bft)
30.06.2014 19:02 18,0 C 16,7 C 63 % 1016,6 hPa 0,0 l/m 2 min 0 min 0,0 UV-I 316 W/m 23,0 km/h (4 Bft)
30.06.2014 19:04 18,1 C 16,7 C 63 % 1016,7 hPa 0,0 l/m 2 min 0 min 0,0 UV-I 301 W/m 14,6 km/h (3 Bft)
30.06.2014 19:06 18,1 C 16,7 C 62 % 1016,7 hPa 0,0 l/m 2 min 0 min 0,0 UV-I 302 W/m 18,8 km/h (3 Bft)
30.06.2014 19:08 18,1 C 16,7 C 63 % 1016,7 hPa 0,0 l/m 2 min 0 min 0,0 UV-I 301 W/m 18,8 km/h (3 Bft)
30.06.2014 19:10 18,1 C 16,7 C 62 % 1016,7 hPa 0,0 l/m 2 min 0 min 0,0 UV-I 287 W/m 18,8 km/h (3 Bft)
30.06.2014 19:12 18,1 C 16,7 C 63 % 1016,7 hPa 0,0 l/m 2 min 0 min 0,0 UV-I 283 W/m 18,8 km/h (3 Bft)
30.06.2014 19:14 18,1 C 16,1 C 63 % 1016,7 hPa 0,0 l/m 2 min 0 min 0,0 UV-I 278 W/m 18,8 km/h (3 Bft)
30.06.2014 19:16 18,1 C 16,1 C 63 % 1016,7 hPa 0,0 l/m 2 min 0 min 0,0 UV-I 274 W/m 16,7 km/h (3 Bft)
30.06.2014 19:18 18,1 C 16,1 C 63 % 1016,7 hPa 0,0 l/m 2 min 0 min 0,0 UV-I 267 W/m 16,7 km/h (3 Bft)
30.06.2014 19:20 18,1 C 16,1 C 63 % 1016,7 hPa 0,0 l/m 2 min 0 min 0,0 UV-I 262 W/m 20,9 km/h (4 Bft)
30.06.2014 19:22 17,9 C 16,1 C 63 % 1016,7 hPa 0,0 l/m 2 min 0 min 0,0 UV-I 255 W/m 16,7 km/h (3 Bft)
30.06.2014 19:24 17,9 C 16,1 C 62 % 1016,7 hPa 0,0 l/m 2 min 0 min 0,0 UV-I 251 W/m 18,8 km/h (3 Bft)
30.06.2014 19:26 17,8 C 16,1 C 61 % 1016,7 hPa 0,0 l/m 2 min 0 min 0,0 UV-I 246 W/m 18,8 km/h (3 Bft)
30.06.2014 19:28 17,7 C 16,1 C 61 % 1016,8 hPa 0,0 l/m 2 min 0 min 0,0 UV-I 236 W/m 18,8 km/h (3 Bft)
30.06.2014 19:30 17,7 C 16,1 C 60 % 1016,7 hPa 0,0 l/m 2 min 0 min 0,0 UV-I 234 W/m 14,6 km/h (3 Bft)
30.06.2014 19:32 17,6 C 16,1 C 59 % 1016,8 hPa 0,0 l/m 2 min 0 min 0,0 UV-I 230 W/m 12,6 km/h (3 Bft)
30.06.2014 19:34 17,6 C 16,1 C 60 % 1016,8 hPa 0,0 l/m 2 min 0 min 0,0 UV-I 223 W/m 12,6 km/h (3 Bft)
30.06.2014 19:36 17,6 C 16,1 C 60 % 1016,7 hPa 0,0 l/m 2 min 0 min 0,0 UV-I 218 W/m 12,6 km/h (3 Bft)
30.06.2014 19:38 17,6 C 16,1 C 59 % 1016,8 hPa 0,0 l/m 2 min 0 min 0,0 UV-I 218 W/m 14,6 km/h (3 Bft)
30.06.2014 19:40 17,6 C 16,1 C 60 % 1016,8 hPa 0,0 l/m 2 min 0 min 0,0 UV-I 209 W/m 6,3 km/h (2 Bft)
30.06.2014 19:42 17,7 C 16,1 C 60 % 1016,8 hPa 0,0 l/m 2 min 0 min 0,0 UV-I 202 W/m 16,7 km/h (3 Bft)
30.06.2014 19:44 17,7 C 16,1 C 60 % 1016,8 hPa 0,0 l/m 2 min 0 min 0,0 UV-I 197 W/m 12,6 km/h (3 Bft)
30.06.2014 19:46 17,7 C 16,1 C 60 % 1016,8 hPa 0,0 l/m 2 min 0 min 0,0 UV-I 190 W/m 10,5 km/h (2 Bft)
30.06.2014 19:48 17,6 C 16,1 C 60 % 1016,7 hPa 0,0 l/m 2 min 0 min 0,0 UV-I 188 W/m 14,6 km/h (3 Bft)
30.06.2014 19:50 17,5 C 15,6 C 60 % 1016,8 hPa 0,0 l/m 2 min 0 min 0,0 UV-I 183 W/m 14,6 km/h (3 Bft)
30.06.2014 19:52 17,5 C 15,6 C 61 % 1016,7 hPa 0,0 l/m 2 min 0 min 0,0 UV-I 178 W/m 8,4 km/h (2 Bft)
30.06.2014 19:54 17,5 C 15,6 C 61 % 1016,7 hPa 0,0 l/m 2 min 0 min 0,0 UV-I 172 W/m 8,4 km/h (2 Bft)
30.06.2014 19:56 17,4 C 15,6 C 60 % 1016,8 hPa 0,0 l/m 2 min 0 min 0,0 UV-I 167 W/m 14,6 km/h (3 Bft)
30.06.2014 19:58 17,4 C 15,6 C 62 % 1016,8 hPa 0,0 l/m 2 min 0 min 0,0 UV-I 163 W/m 10,5 km/h (2 Bft)
30.06.2014 20:00 17,4 C 15,6 C 61 % 1016,8 hPa 0,0 l/m 2 min 0 min 0,0 UV-I 156 W/m 14,6 km/h (3 Bft)
30.06.2014 20:02 17,4 C 15,6 C 61 % 1016,7 hPa 0,0 l/m 2 min 0 min 0,0 UV-I 148 W/m 10,5 km/h (2 Bft)
30.06.2014 20:04 17,3 C 15,6 C 61 % 1016,8 hPa 0,0 l/m 2 min 0 min 0,0 UV-I 144 W/m 8,4 km/h (2 Bft)
30.06.2014 20:06 17,3 C 15,6 C 62 % 1016,8 hPa 0,0 l/m 2 min 0 min 0,0 UV-I 141 W/m 10,5 km/h (2 Bft)
30.06.2014 20:08 17,3 C 15,6 C 62 % 1016,8 hPa 0,0 l/m 2 min 0 min 0,0 UV-I 134 W/m 10,5 km/h (2 Bft)
30.06.2014 20:10 17,3 C 15,6 C 62 % 1016,8 hPa 0,0 l/m 2 min 0 min 0,0 UV-I 130 W/m 8,4 km/h (2 Bft)
30.06.2014 20:12 17,3 C 15,6 C 62 % 1016,8 hPa 0,0 l/m 2 min 0 min 0,0 UV-I 125 W/m 8,4 km/h (2 Bft)
30.06.2014 20:14 17,3 C 15,6 C 62 % 1016,9 hPa 0,0 l/m 2 min 0 min 0,0 UV-I 118 W/m 8,4 km/h (2 Bft)
30.06.2014 20:16 17,3 C 15,6 C 62 % 1016,9 hPa 0,0 l/m 2 min 0 min 0,0 UV-I 114 W/m 6,3 km/h (2 Bft)
30.06.2014 20:18 17,2 C 15,6 C 62 % 1016,9 hPa 0,0 l/m 0 min 0 min 0,0 UV-I 111 W/m 8,4 km/h (2 Bft)
30.06.2014 20:20 17,2 C 15,6 C 63 % 1016,9 hPa 0,0 l/m 0 min 0 min 0,0 UV-I 104 W/m 8,4 km/h (2 Bft)
30.06.2014 20:22 17,2 C 15,6 C 63 % 1016,9 hPa 0,0 l/m 0 min 0 min 0,0 UV-I 100 W/m 10,5 km/h (2 Bft)
30.06.2014 20:24 17,2 C 15,6 C 63 % 1016,9 hPa 0,0 l/m 0 min 0 min 0,0 UV-I 98 W/m 8,4 km/h (2 Bft)
30.06.2014 20:26 17,1 C 15,0 C 64 % 1017,0 hPa 0,0 l/m 0 min 0 min 0,0 UV-I 93 W/m 8,4 km/h (2 Bft)
30.06.2014 20:28 17,1 C 15,0 C 64 % 1017,0 hPa 0,0 l/m 0 min 0 min 0,0 UV-I 91 W/m 8,4 km/h (2 Bft)
30.06.2014 20:30 17,1 C 15,0 C 63 % 1017,0 hPa 0,0 l/m 0 min 0 min 0,0 UV-I 88 W/m 2,1 km/h (1 Bft)
30.06.2014 20:32 17,1 C 15,0 C 63 % 1017,0 hPa 0,0 l/m 0 min 0 min 0,0 UV-I 91 W/m 6,3 km/h (2 Bft)
30.06.2014 20:34 17,1 C 15,6 C 63 % 1017,0 hPa 0,0 l/m 0 min 0 min 0,0 UV-I 89 W/m 8,4 km/h (2 Bft)
30.06.2014 20:36 17,0 C 15,6 C 63 % 1017,0 hPa 0,0 l/m 0 min 0 min 0,0 UV-I 67 W/m 8,4 km/h (2 Bft)
30.06.2014 20:38 17,0 C 15,0 C 63 % 1017,1 hPa 0,0 l/m 0 min 0 min 0,0 UV-I 40 W/m 6,3 km/h (2 Bft)
30.06.2014 20:40 16,9 C 15,0 C 63 % 1017,1 hPa 0,0 l/m 0 min 0 min 0,0 UV-I 48 W/m 8,4 km/h (2 Bft)
30.06.2014 20:42 16,9 C 15,0 C 64 % 1017,0 hPa 0,0 l/m 0 min 0 min 0,0 UV-I 38 W/m 2,1 km/h (1 Bft)
30.06.2014 20:44 16,8 C 15,0 C 65 % 1017,1 hPa 0,0 l/m 0 min 0 min 0,0 UV-I 59 W/m 0,0 km/h (0 Bft)
30.06.2014 20:46 16,6 C 15,0 C 66 % 1017,1 hPa 0,0 l/m 0 min 0 min 0,0 UV-I 38 W/m 0,0 km/h (0 Bft)
30.06.2014 20:48 16,6 C 14,4 C 65 % 1017,1 hPa 0,0 l/m 0 min 0 min 0,0 UV-I 56 W/m 0,0 km/h (0 Bft)
30.06.2014 20:50 16,5 C 14,4 C 66 % 1017,1 hPa 0,0 l/m 0 min 0 min 0,0 UV-I 54 W/m 2,1 km/h (1 Bft)
30.06.2014 20:52 16,4 C 14,4 C 67 % 1017,1 hPa 0,0 l/m 0 min 0 min 0,0 UV-I 51 W/m 0,0 km/h (0 Bft)
30.06.2014 20:54 16,3 C 13,9 C 68 % 1017,1 hPa 0,0 l/m 0 min 0 min 0,0 UV-I 48 W/m 0,0 km/h (0 Bft)
30.06.2014 20:56 16,3 C 13,9 C 68 % 1017,1 hPa 0,0 l/m 0 min 0 min 0,0 UV-I 46 W/m 0,0 km/h (0 Bft)
30.06.2014 20:58 16,2 C 13,9 C 69 % 1017,1 hPa 0,0 l/m 0 min 0 min 0,0 UV-I 45 W/m 0,0 km/h (0 Bft)
30.06.2014 21:00 16,1 C 13,9 C 69 % 1017,1 hPa 0,0 l/m 0 min 0 min 0,0 UV-I 43 W/m 0,0 km/h (0 Bft)
30.06.2014 21:01 16,1 C 13,9 C 69 % 1017,1 hPa 0,0 l/m 0 min 0 min 0,0 UV-I 43 W/m 0,0 km/h (0 Bft)
30.06.2014 21:02 16,1 C 13,9 C 69 % 1017,1 hPa 0,0 l/m 0 min 0 min 0,0 UV-I 38 W/m 0,0 km/h (0 Bft)
30.06.2014 21:03 16,0 C 13,9 C 69 % 1017,1 hPa 0,0 l/m 0 min 0 min 0,0 UV-I 38 W/m 0,0 km/h (0 Bft)
30.06.2014 21:04 16,0 C 13,3 C 69 % 1017,0 hPa 0,0 l/m 0 min 0 min 0,0 UV-I 37 W/m 0,0 km/h (0 Bft)
30.06.2014 21:05 16,0 C 13,3 C 69 % 1017,1 hPa 0,0 l/m 0 min 0 min 0,0 UV-I 37 W/m 0,0 km/h (0 Bft)
30.06.2014 21:06 16,0 C 13,3 C 69 % 1017,1 hPa 0,0 l/m 0 min 0 min 0,0 UV-I 34 W/m 0,0 km/h (0 Bft)
30.06.2014 21:07 16,0 C 13,3 C 69 % 1017,1 hPa 0,0 l/m 0 min 0 min 0,0 UV-I 32 W/m 0,0 km/h (0 Bft)
30.06.2014 21:08 15,9 C 13,3 C 69 % 1017,2 hPa 0,0 l/m 0 min 0 min 0,0 UV-I 32 W/m 0,0 km/h (0 Bft)
30.06.2014 21:09 15,9 C 13,3 C 70 % 1017,1 hPa 0,0 l/m 0 min 0 min 0,0 UV-I 30 W/m 0,0 km/h (0 Bft)
30.06.2014 21:12 15,8 C 13,3 C 70 % 1017,1 hPa 0,0 l/m 0 min 0 min 0,0 UV-I 26 W/m 0,0 km/h (0 Bft)
30.06.2014 21:14 15,9 C 13,3 C 69 % 1017,1 hPa 0,0 l/m 0 min 0 min 0,0 UV-I 24 W/m 0,0 km/h (0 Bft)
30.06.2014 21:16 15,9 C 13,3 C 69 % 1017,1 hPa 0,0 l/m 0 min 0 min 0,0 UV-I 24 W/m 0,0 km/h (0 Bft)
30.06.2014 21:18 15,8 C 13,3 C 69 % 1017,1 hPa 0,0 l/m 0 min 0 min 0,0 UV-I 24 W/m 0,0 km/h (0 Bft)
30.06.2014 21:20 15,8 C 13,3 C 70 % 1017,1 hPa 0,0 l/m 0 min 0 min 0,0 UV-I 22 W/m 0,0 km/h (0 Bft)
30.06.2014 21:22 15,6 C 13,3 C 70 % 1017,1 hPa 0,0 l/m 0 min 0 min 0,0 UV-I 22 W/m 0,0 km/h (0 Bft)
30.06.2014 21:24 15,4 C 12,8 C 72 % 1017,1 hPa 0,0 l/m 0 min 0 min 0,0 UV-I 21 W/m 0,0 km/h (0 Bft)
30.06.2014 21:26 15,4 C 12,8 C 72 % 1017,1 hPa 0,0 l/m 0 min 0 min 0,0 UV-I 21 W/m 0,0 km/h (0 Bft)
30.06.2014 21:28 15,3 C 12,8 C 74 % 1017,1 hPa 0,0 l/m 0 min 0 min 0,0 UV-I 18 W/m 0,0 km/h (0 Bft)
30.06.2014 21:30 15,2 C 12,8 C 74 % 1017,2 hPa 0,0 l/m 0 min 0 min 0,0 UV-I 18 W/m 0,0 km/h (0 Bft)
30.06.2014 21:32 15,1 C 12,8 C 75 % 1017,2 hPa 0,0 l/m 0 min 0 min 0,0 UV-I 16 W/m 0,0 km/h (0 Bft)
30.06.2014 21:34 15,1 C 12,8 C 76 % 1017,2 hPa 0,0 l/m 2 min 0 min 0,0 UV-I 16 W/m 0,0 km/h (0 Bft)
30.06.2014 21:36 15,0 C 12,8 C 76 % 1017,3 hPa 0,0 l/m 2 min 0 min 0,0 UV-I 18 W/m 0,0 km/h (0 Bft)
30.06.2014 21:38 14,9 C 12,8 C 76 % 1017,2 hPa 0,0 l/m 2 min 0 min 0,0 UV-I 18 W/m 0,0 km/h (0 Bft)
30.06.2014 21:40 14,8 C 12,2 C 77 % 1017,3 hPa 0,0 l/m 0 min 0 min 0,0 UV-I 16 W/m 0,0 km/h (0 Bft)
30.06.2014 21:42 14,8 C 12,2 C 78 % 1017,3 hPa 0,0 l/m 0 min 0 min 0,0 UV-I 14 W/m 0,0 km/h (0 Bft)
30.06.2014 21:44 14,7 C 12,2 C 77 % 1017,3 hPa 0,0 l/m 0 min 0 min 0,0 UV-I 13 W/m 0,0 km/h (0 Bft)
30.06.2014 21:46 14,6 C 12,2 C 78 % 1017,3 hPa 0,0 l/m 0 min 0 min 0,0 UV-I 13 W/m 0,0 km/h (0 Bft)
30.06.2014 21:48 14,6 C 12,2 C 78 % 1017,4 hPa 0,0 l/m 0 min 0 min 0,0 UV-I 10 W/m 0,0 km/h (0 Bft)
30.06.2014 21:50 14,6 C 12,2 C 79 % 1017,3 hPa 0,0 l/m 0 min 0 min 0,0 UV-I 10 W/m 0,0 km/h (0 Bft)
30.06.2014 21:52 14,5 C 12,2 C 80 % 1017,3 hPa 0,0 l/m 0 min 0 min 0,0 UV-I 8 W/m 0,0 km/h (0 Bft)
30.06.2014 21:54 14,4 C 12,2 C 80 % 1017,4 hPa 0,0 l/m 0 min 0 min 0,0 UV-I 6 W/m 0,0 km/h (0 Bft)
30.06.2014 21:56 14,4 C 12,2 C 80 % 1017,3 hPa 0,0 l/m 0 min 0 min 0,0 UV-I 6 W/m 0,0 km/h (0 Bft)
30.06.2014 21:58 14,3 C 12,2 C 81 % 1017,4 hPa 0,0 l/m 0 min 0 min 0,0 UV-I 6 W/m 0,0 km/h (0 Bft)
30.06.2014 22:00 14,2 C 12,2 C 82 % 1017,4 hPa 0,0 l/m 0 min 0 min 0,0 UV-I 0 W/m 0,0 km/h (0 Bft)
30.06.2014 22:02 14,2 C 12,2 C 82 % 1017,4 hPa 0,0 l/m 0 min 0 min 0,0 UV-I 0 W/m 0,0 km/h (0 Bft)
30.06.2014 22:04 14,1 C 11,7 C 83 % 1017,5 hPa 0,0 l/m 0 min 0 min 0,0 UV-I 0 W/m 0,0 km/h (0 Bft)
30.06.2014 22:06 13,9 C 11,7 C 83 % 1017,5 hPa 0,0 l/m 0 min 0 min 0,0 UV-I 0 W/m 0,0 km/h (0 Bft)
30.06.2014 22:08 13,8 C 11,7 C 83 % 1017,5 hPa 0,0 l/m 0 min 0 min 0,0 UV-I 0 W/m 0,0 km/h (0 Bft)
30.06.2014 22:10 13,8 C 11,7 C 84 % 1017,5 hPa 0,0 l/m 0 min 0 min 0,0 UV-I 0 W/m 0,0 km/h (0 Bft)
30.06.2014 22:12 13,7 C 11,7 C 84 % 1017,6 hPa 0,0 l/m 0 min 0 min 0,0 UV-I 0 W/m 0,0 km/h (0 Bft)
30.06.2014 22:14 13,6 C 11,7 C 85 % 1017,6 hPa 0,0 l/m 0 min 0 min 0,0 UV-I 0 W/m 0,0 km/h (0 Bft)
30.06.2014 22:16 13,6 C 11,7 C 85 % 1017,7 hPa 0,0 l/m 0 min 0 min 0,0 UV-I 0 W/m 0,0 km/h (0 Bft)
30.06.2014 22:18 13,6 C 11,7 C 85 % 1017,7 hPa 0,0 l/m 0 min 0 min 0,0 UV-I 0 W/m 0,0 km/h (0 Bft)
30.06.2014 22:20 13,6 C 11,7 C 84 % 1017,7 hPa 0,0 l/m 0 min 0 min 0,0 UV-I 0 W/m 0,0 km/h (0 Bft)
30.06.2014 22:22 13,6 C 11,7 C 84 % 1017,7 hPa 0,0 l/m 0 min 0 min 0,0 UV-I 0 W/m 0,0 km/h (0 Bft)
30.06.2014 22:24 13,6 C 11,7 C 84 % 1017,7 hPa 0,0 l/m 0 min 0 min 0,0 UV-I 0 W/m 0,0 km/h (0 Bft)
30.06.2014 22:26 13,7 C 11,7 C 84 % 1017,7 hPa 0,0 l/m 0 min 0 min 0,0 UV-I 0 W/m 0,0 km/h (0 Bft)
30.06.2014 22:28 13,6 C 11,7 C 84 % 1017,7 hPa 0,0 l/m 0 min 0 min 0,0 UV-I 0 W/m 0,0 km/h (0 Bft)
30.06.2014 22:30 13,6 C 11,7 C 84 % 1017,7 hPa 0,0 l/m 0 min 0 min 0,0 UV-I 0 W/m 0,0 km/h (0 Bft)
30.06.2014 22:32 13,6 C 11,7 C 84 % 1017,7 hPa 0,0 l/m 0 min 0 min 0,0 UV-I 0 W/m 0,0 km/h (0 Bft)
30.06.2014 22:34 13,6 C 11,7 C 83 % 1017,8 hPa 0,0 l/m 0 min 0 min 0,0 UV-I 0 W/m 0,0 km/h (0 Bft)
30.06.2014 22:36 13,6 C 11,7 C 83 % 1017,7 hPa 0,0 l/m 0 min 0 min 0,0 UV-I 0 W/m 0,0 km/h (0 Bft)
30.06.2014 22:38 13,6 C 11,7 C 83 % 1017,7 hPa 0,0 l/m 0 min 0 min 0,0 UV-I 0 W/m 0,0 km/h (0 Bft)
30.06.2014 22:40 13,6 C 11,7 C 83 % 1017,8 hPa 0,0 l/m 0 min 0 min 0,0 UV-I 0 W/m 2,1 km/h (1 Bft)
30.06.2014 22:42 13,6 C 11,7 C 82 % 1017,8 hPa 0,0 l/m 0 min 0 min 0,0 UV-I 0 W/m 0,0 km/h (0 Bft)
30.06.2014 22:44 13,5 C 11,7 C 82 % 1017,9 hPa 0,0 l/m 0 min 0 min 0,0 UV-I 0 W/m 0,0 km/h (0 Bft)
30.06.2014 22:46 13,5 C 11,7 C 82 % 1017,9 hPa 0,0 l/m 0 min 0 min 0,0 UV-I 0 W/m 0,0 km/h (0 Bft)
30.06.2014 22:48 13,4 C 11,7 C 82 % 1017,9 hPa 0,0 l/m 0 min 0 min 0,0 UV-I 0 W/m 2,1 km/h (1 Bft)
30.06.2014 22:50 13,3 C 11,1 C 83 % 1017,9 hPa 0,0 l/m 0 min 0 min 0,0 UV-I 0 W/m 0,0 km/h (0 Bft)
30.06.2014 22:52 13,2 C 11,1 C 83 % 1017,9 hPa 0,0 l/m 0 min 0 min 0,0 UV-I 0 W/m 0,0 km/h (0 Bft)
30.06.2014 22:54 13,2 C 11,1 C 83 % 1017,9 hPa 0,0 l/m 0 min 0 min 0,0 UV-I 0 W/m 0,0 km/h (0 Bft)
30.06.2014 22:56 13,1 C 11,1 C 83 % 1017,9 hPa 0,0 l/m 0 min 0 min 0,0 UV-I 0 W/m 0,0 km/h (0 Bft)
30.06.2014 22:58 13,1 C 11,1 C 84 % 1018,0 hPa 0,0 l/m 0 min 0 min 0,0 UV-I 0 W/m 0,0 km/h (0 Bft)
30.06.2014 23:00 13,0 C 11,1 C 84 % 1018,0 hPa 0,0 l/m 0 min 0 min 0,0 UV-I 0 W/m 0,0 km/h (0 Bft)
30.06.2014 23:02 12,9 C 10,6 C 84 % 1018,0 hPa 0,0 l/m 0 min 0 min 0,0 UV-I 0 W/m 0,0 km/h (0 Bft)
30.06.2014 23:04 12,9 C 10,6 C 84 % 1018,0 hPa 0,0 l/m 0 min 0 min 0,0 UV-I 0 W/m 0,0 km/h (0 Bft)
30.06.2014 23:06 12,9 C 10,6 C 85 % 1018,0 hPa 0,0 l/m 0 min 0 min 0,0 UV-I 0 W/m 0,0 km/h (0 Bft)
30.06.2014 23:08 12,8 C 10,6 C 85 % 1018,0 hPa 0,0 l/m 0 min 0 min 0,0 UV-I 0 W/m 0,0 km/h (0 Bft)
30.06.2014 23:10 12,8 C 10,6 C 85 % 1018,0 hPa 0,0 l/m 0 min 0 min 0,0 UV-I 0 W/m 0,0 km/h (0 Bft)
30.06.2014 23:12 12,7 C 10,6 C 85 % 1018,0 hPa 0,0 l/m 0 min 0 min 0,0 UV-I 0 W/m 0,0 km/h (0 Bft)
30.06.2014 23:14 12,6 C 10,6 C 86 % 1018,0 hPa 0,0 l/m 0 min 0 min 0,0 UV-I 0 W/m 0,0 km/h (0 Bft)
30.06.2014 23:16 12,6 C 10,6 C 86 % 1018,0 hPa 0,0 l/m 0 min 0 min 0,0 UV-I 0 W/m 0,0 km/h (0 Bft)
30.06.2014 23:18 12,5 C 10,6 C 86 % 1018,1 hPa 0,0 l/m 0 min 0 min 0,0 UV-I 0 W/m 0,0 km/h (0 Bft)
30.06.2014 23:20 12,4 C 10,6 C 87 % 1018,0 hPa 0,0 l/m 0 min 0 min 0,0 UV-I 0 W/m 0,0 km/h (0 Bft)
30.06.2014 23:22 12,3 C 10,6 C 87 % 1018,0 hPa 0,0 l/m 0 min 0 min 0,0 UV-I 0 W/m 0,0 km/h (0 Bft)
30.06.2014 23:24 12,3 C 10,6 C 87 % 1018,0 hPa 0,0 l/m 0 min 0 min 0,0 UV-I 0 W/m 0,0 km/h (0 Bft)
30.06.2014 23:26 12,2 C 10,0 C 87 % 1018,0 hPa 0,0 l/m 0 min 0 min 0,0 UV-I 0 W/m 0,0 km/h (0 Bft)
30.06.2014 23:28 12,2 C 10,0 C 87 % 1018,0 hPa 0,0 l/m 0 min 0 min 0,0 UV-I 0 W/m 0,0 km/h (0 Bft)
30.06.2014 23:30 12,1 C 10,0 C 87 % 1018,1 hPa 0,0 l/m 0 min 0 min 0,0 UV-I 0 W/m 0,0 km/h (0 Bft)
30.06.2014 23:32 12,1 C 10,0 C 87 % 1018,1 hPa 0,0 l/m 0 min 0 min 0,0 UV-I 0 W/m 0,0 km/h (0 Bft)
30.06.2014 23:34 12,1 C 10,0 C 87 % 1018,2 hPa 0,0 l/m 0 min 0 min 0,0 UV-I 0 W/m 0,0 km/h (0 Bft)
30.06.2014 23:36 12,1 C 10,0 C 88 % 1018,1 hPa 0,0 l/m 0 min 0 min 0,0 UV-I 0 W/m 0,0 km/h (0 Bft)
30.06.2014 23:38 12,0 C 10,0 C 88 % 1018,2 hPa 0,0 l/m 0 min 0 min 0,0 UV-I 0 W/m 0,0 km/h (0 Bft)
30.06.2014 23:40 11,9 C 10,0 C 88 % 1018,2 hPa 0,0 l/m 0 min 0 min 0,0 UV-I 0 W/m 0,0 km/h (0 Bft)
30.06.2014 23:42 11,9 C 10,0 C 88 % 1018,2 hPa 0,0 l/m 0 min 0 min 0,0 UV-I 0 W/m 8,4 km/h (2 Bft)
30.06.2014 23:44 11,9 C 10,0 C 88 % 1018,1 hPa 0,0 l/m 0 min 0 min 0,0 UV-I 0 W/m 6,3 km/h (2 Bft)
30.06.2014 23:46 11,9 C 10,0 C 88 % 1018,2 hPa 0,0 l/m 0 min 0 min 0,0 UV-I 0 W/m 0,0 km/h (0 Bft)
30.06.2014 23:48 11,9 C 10,0 C 87 % 1018,3 hPa 0,0 l/m 0 min 0 min 0,0 UV-I 0 W/m 0,0 km/h (0 Bft)
30.06.2014 23:50 11,9 C 10,0 C 87 % 1018,2 hPa 0,0 l/m 0 min 0 min 0,0 UV-I 0 W/m 4,2 km/h (1 Bft)
30.06.2014 23:52 11,9 C 10,0 C 86 % 1018,2 hPa 0,0 l/m 0 min 0 min 0,0 UV-I 0 W/m 0,0 km/h (0 Bft)
30.06.2014 23:54 11,9 C 10,0 C 86 % 1018,2 hPa 0,0 l/m 0 min 0 min 0,0 UV-I 0 W/m 0,0 km/h (0 Bft)
30.06.2014 23:56 11,9 C 10,0 C 86 % 1018,2 hPa 0,0 l/m 0 min 0 min 0,0 UV-I 0 W/m 0,0 km/h (0 Bft)
30.06.2014 23:58 11,9 C 10,0 C 85 % 1018,2 hPa 0,0 l/m 0 min 0 min 0,0 UV-I 0 W/m 0,0 km/h (0 Bft)
_ Min-Zeit 04:44 23:26 17:00 00:05 - - - - - 00:36
Minimum _ 11,5 C 10,0 C 55 % 1011,6 hPa - - - - - 0,0 km/h (0 Bft)
_ Max-Zeit 17:04 12:16 04:12 23:48 11:16 05:36 10:30 14:00 14:02 12:30
Maximum _ 20,2 C 22,8 C 97 % 1018,3 hPa 0,2 l/m 2 min 2 min 5,6 UV-I 1157 W/m 35,6 km/h
N-NW (5 Bft)
Durchschnitt _ 15,1 C 14,3 C 82 % 1015,0 hPa #0,2 l/m #6:13 h #58 min. 1,9 UV-I 289 W/m 12,2 km/h (2 Bft)
© 2014 W. Hausmann